C2014 PASY-PADQ
Flight info
| Callsign | C2014 |
|---|---|
| Flight time | 5h 50m |
| Altitude | 5000 |
| Route | PASY DCT FORCS DCT SYA T227 WIXER T388 BAILY DCT PADQ |
| Aircraft | C30J/M-G/C |
Departure
| Time | 2026-05-06 13:59 |
|---|---|
| Airport | Eareckson Air Station (PASY) |
Arrival
| Time | 2026-05-06 19:49 |
|---|---|
| Airport | Kodiak Airport (PADQ) |
| Time | Latitude | Longitude | Altitude | Speed | Heading |
|---|---|---|---|---|---|
| 2026-05-06 13:44 | 52.71149 | 174.12750 | 93 ft | 0 kts | 271° |
| 2026-05-06 13:46 | 52.71141 | 174.12697 | 95 ft | 9 kts | 255° |
| 2026-05-06 13:47 | 52.71133 | 174.12597 | 93 ft | 7 kts | 273° |
| 2026-05-06 13:47 | 52.71119 | 174.12526 | 96 ft | 12 kts | 213° |
| 2026-05-06 13:47 | 52.71045 | 174.12483 | 96 ft | 9 kts | 187° |
| 2026-05-06 13:47 | 52.71005 | 174.12523 | 96 ft | 7 kts | 119° |
| 2026-05-06 13:48 | 52.70989 | 174.12590 | 94 ft | 6 kts | 110° |
| 2026-05-06 13:48 | 52.70977 | 174.12644 | 93 ft | 5 kts | 110° |
| 2026-05-06 13:48 | 52.70964 | 174.12702 | 94 ft | 6 kts | 110° |
| 2026-05-06 13:48 | 52.70949 | 174.12772 | 94 ft | 7 kts | 109° |
| 2026-05-06 13:49 | 52.70931 | 174.12856 | 91 ft | 9 kts | 109° |
| 2026-05-06 13:49 | 52.70909 | 174.12956 | 90 ft | 10 kts | 109° |
| 2026-05-06 13:49 | 52.70875 | 174.13043 | 92 ft | 8 kts | 142° |
| 2026-05-06 13:49 | 52.70837 | 174.13097 | 92 ft | 6 kts | 122° |
| 2026-05-06 13:50 | 52.70819 | 174.13166 | 92 ft | 7 kts | 109° |
| 2026-05-06 13:50 | 52.70803 | 174.13242 | 90 ft | 7 kts | 109° |
| 2026-05-06 13:50 | 52.70788 | 174.13321 | 90 ft | 7 kts | 105° |
| 2026-05-06 13:50 | 52.70781 | 174.13394 | 91 ft | 6 kts | 91° |
| 2026-05-06 13:51 | 52.70785 | 174.13459 | 91 ft | 5 kts | 60° |
| 2026-05-06 13:51 | 52.70811 | 174.13467 | 90 ft | 3 kts | 333° |
| 2026-05-06 13:51 | 52.70821 | 174.13451 | 90 ft | 1 kts | 291° |
| 2026-05-06 13:51 | 52.70821 | 174.13450 | 90 ft | 0 kts | 288° |
| 2026-05-06 13:57 | 52.70847 | 174.13308 | 90 ft | 39 kts | 287° |
| 2026-05-06 13:57 | 52.70988 | 174.12613 | 94 ft | 87 kts | 288° |
| 2026-05-06 13:58 | 52.71204 | 174.11438 | 101 ft | 126 kts | 279° |
| 2026-05-06 13:58 | 52.71404 | 174.09930 | 359 ft | 142 kts | 279° |
| 2026-05-06 13:58 | 52.71646 | 174.08256 | 548 ft | 166 kts | 284° |
| 2026-05-06 13:58 | 52.72431 | 174.06631 | 548 ft | 207 kts | 333° |
| 2026-05-06 13:59 | 52.73947 | 174.06433 | 696 ft | 240 kts | 13° |
| 2026-05-06 13:59 | 52.75393 | 174.08016 | 913 ft | 265 kts | 52° |
| 2026-05-06 13:59 | 52.76159 | 174.10795 | 1445 ft | 268 kts | 79° |
| 2026-05-06 13:59 | 52.76332 | 174.13808 | 2185 ft | 265 kts | 92° |
| 2026-05-06 14:00 | 52.76240 | 174.16873 | 2704 ft | 269 kts | 98° |
| 2026-05-06 14:00 | 52.75954 | 174.19919 | 3342 ft | 267 kts | 103° |
| 2026-05-06 14:00 | 52.75556 | 174.22919 | 3935 ft | 270 kts | 107° |
| 2026-05-06 14:00 | 52.74996 | 174.25950 | 4233 ft | 281 kts | 111° |
| 2026-05-06 14:01 | 52.74289 | 174.29036 | 4413 ft | 295 kts | 115° |
| 2026-05-06 14:01 | 52.73414 | 174.32110 | 4627 ft | 303 kts | 120° |
| 2026-05-06 14:01 | 52.72421 | 174.35273 | 4670 ft | 317 kts | 120° |
| 2026-05-06 14:01 | 52.71403 | 174.38571 | 4683 ft | 327 kts | 120° |
| 2026-05-06 14:02 | 52.70367 | 174.41916 | 4688 ft | 326 kts | 120° |
| 2026-05-06 14:02 | 52.69416 | 174.45303 | 4677 ft | 326 kts | 109° |
| 2026-05-06 14:02 | 52.69070 | 174.49012 | 4671 ft | 327 kts | 96° |
| 2026-05-06 14:02 | 52.68898 | 174.52746 | 4674 ft | 327 kts | 96° |
| 2026-05-06 14:03 | 52.68767 | 174.56467 | 4674 ft | 327 kts | 95° |
| 2026-05-06 14:03 | 52.68657 | 174.60210 | 4677 ft | 327 kts | 94° |
| 2026-05-06 14:03 | 52.68556 | 174.63953 | 4676 ft | 325 kts | 95° |
| 2026-05-06 14:03 | 52.68461 | 174.67658 | 4673 ft | 322 kts | 94° |
| 2026-05-06 14:04 | 52.68362 | 174.71342 | 4670 ft | 320 kts | 96° |
| 2026-05-06 14:04 | 52.68156 | 174.74982 | 4669 ft | 318 kts | 98° |
| 2026-05-06 14:04 | 52.67908 | 174.78594 | 4668 ft | 317 kts | 99° |
| 2026-05-06 14:04 | 52.67665 | 174.82196 | 4667 ft | 316 kts | 98° |
| 2026-05-06 14:05 | 52.67440 | 174.85802 | 4666 ft | 316 kts | 98° |
| 2026-05-06 14:05 | 52.67227 | 174.89397 | 4665 ft | 315 kts | 97° |
| 2026-05-06 14:05 | 52.67019 | 174.92995 | 4665 ft | 315 kts | 97° |
| 2026-05-06 14:05 | 52.66814 | 174.96553 | 4665 ft | 315 kts | 97° |
| 2026-05-06 14:06 | 52.66630 | 175.00152 | 4659 ft | 316 kts | 97° |
| 2026-05-06 14:06 | 52.66449 | 175.03763 | 4654 ft | 315 kts | 96° |
| 2026-05-06 14:06 | 52.66263 | 175.07361 | 4650 ft | 315 kts | 96° |
| 2026-05-06 14:06 | 52.66055 | 175.10960 | 4650 ft | 316 kts | 97° |
| 2026-05-06 14:07 | 52.65829 | 175.14568 | 4650 ft | 316 kts | 97° |
| 2026-05-06 14:07 | 52.65593 | 175.18181 | 4651 ft | 317 kts | 97° |
| 2026-05-06 14:07 | 52.65359 | 175.21793 | 4652 ft | 317 kts | 97° |
| 2026-05-06 14:07 | 52.65122 | 175.25362 | 4652 ft | 318 kts | 97° |
| 2026-05-06 14:08 | 52.64882 | 175.28983 | 4652 ft | 318 kts | 98° |
| 2026-05-06 14:08 | 52.64640 | 175.32601 | 4652 ft | 318 kts | 97° |
| 2026-05-06 14:08 | 52.64397 | 175.36224 | 4653 ft | 318 kts | 98° |
| 2026-05-06 14:08 | 52.64151 | 175.39848 | 4653 ft | 318 kts | 97° |
| 2026-05-06 14:09 | 52.63906 | 175.43461 | 4653 ft | 318 kts | 98° |
| 2026-05-06 14:09 | 52.63663 | 175.47088 | 4653 ft | 318 kts | 97° |
| 2026-05-06 14:09 | 52.63417 | 175.50698 | 4652 ft | 317 kts | 98° |
| 2026-05-06 14:09 | 52.63173 | 175.54304 | 4652 ft | 317 kts | 98° |
| 2026-05-06 14:10 | 52.62927 | 175.57908 | 4654 ft | 316 kts | 98° |
| 2026-05-06 14:10 | 52.62692 | 175.61495 | 4656 ft | 315 kts | 97° |
| 2026-05-06 14:10 | 52.62476 | 175.65080 | 4655 ft | 314 kts | 97° |
| 2026-05-06 14:10 | 52.62263 | 175.68659 | 4654 ft | 313 kts | 97° |
| 2026-05-06 14:11 | 52.62056 | 175.72189 | 4653 ft | 313 kts | 97° |
| 2026-05-06 14:11 | 52.61849 | 175.75747 | 4652 ft | 312 kts | 97° |
| 2026-05-06 14:11 | 52.61640 | 175.79301 | 4652 ft | 312 kts | 97° |
| 2026-05-06 14:11 | 52.61432 | 175.82845 | 4657 ft | 311 kts | 97° |
| 2026-05-06 14:12 | 52.61224 | 175.86401 | 4654 ft | 311 kts | 97° |
| 2026-05-06 14:12 | 52.61016 | 175.89945 | 4654 ft | 311 kts | 97° |
| 2026-05-06 14:12 | 52.60807 | 175.93492 | 4654 ft | 312 kts | 97° |
| 2026-05-06 14:12 | 52.60594 | 175.97051 | 4655 ft | 313 kts | 97° |
| 2026-05-06 14:13 | 52.60381 | 176.00616 | 4651 ft | 314 kts | 97° |
| 2026-05-06 14:13 | 52.60167 | 176.04192 | 4656 ft | 314 kts | 97° |
| 2026-05-06 14:13 | 52.59956 | 176.07767 | 4656 ft | 315 kts | 97° |
| 2026-05-06 14:13 | 52.59744 | 176.11358 | 4657 ft | 315 kts | 97° |
| 2026-05-06 14:14 | 52.59515 | 176.14942 | 4657 ft | 315 kts | 97° |
| 2026-05-06 14:14 | 52.59273 | 176.18519 | 4656 ft | 315 kts | 98° |
| 2026-05-06 14:14 | 52.59026 | 176.22089 | 4659 ft | 314 kts | 98° |
| 2026-05-06 14:14 | 52.58775 | 176.25655 | 4658 ft | 314 kts | 98° |
| 2026-05-06 14:15 | 52.58528 | 176.29168 | 4657 ft | 313 kts | 98° |
| 2026-05-06 14:15 | 52.58275 | 176.32720 | 4657 ft | 313 kts | 98° |
| 2026-05-06 14:15 | 52.58019 | 176.36278 | 4657 ft | 313 kts | 98° |
| 2026-05-06 14:15 | 52.57766 | 176.39830 | 4657 ft | 313 kts | 98° |
| 2026-05-06 14:16 | 52.57511 | 176.43391 | 4664 ft | 313 kts | 98° |
| 2026-05-06 14:16 | 52.57253 | 176.46944 | 4663 ft | 313 kts | 98° |
| 2026-05-06 14:16 | 52.56998 | 176.50505 | 4654 ft | 313 kts | 98° |
| 2026-05-06 14:16 | 52.56755 | 176.54054 | 4659 ft | 312 kts | 98° |
| 2026-05-06 14:17 | 52.56531 | 176.57589 | 4657 ft | 310 kts | 99° |
| 2026-05-06 14:17 | 52.56325 | 176.61119 | 4665 ft | 310 kts | 98° |
| 2026-05-06 14:17 | 52.56116 | 176.64638 | 4665 ft | 309 kts | 98° |
| 2026-05-06 14:17 | 52.55900 | 176.68148 | 4664 ft | 308 kts | 98° |
| 2026-05-06 14:18 | 52.55698 | 176.71648 | 4661 ft | 307 kts | 98° |
| 2026-05-06 14:18 | 52.55487 | 176.75142 | 4661 ft | 306 kts | 98° |
| 2026-05-06 14:18 | 52.55271 | 176.78618 | 4661 ft | 306 kts | 99° |
| 2026-05-06 14:18 | 52.55066 | 176.82092 | 4668 ft | 305 kts | 98° |
| 2026-05-06 14:19 | 52.54861 | 176.85516 | 4670 ft | 304 kts | 98° |
| 2026-05-06 14:19 | 52.54648 | 176.88965 | 4670 ft | 303 kts | 98° |
| 2026-05-06 14:19 | 52.54451 | 176.92408 | 4669 ft | 302 kts | 98° |
| 2026-05-06 14:19 | 52.54254 | 176.95845 | 4667 ft | 301 kts | 98° |
| 2026-05-06 14:20 | 52.54046 | 176.99264 | 4664 ft | 300 kts | 98° |
| 2026-05-06 14:20 | 52.53854 | 177.02679 | 4656 ft | 299 kts | 99° |
| 2026-05-06 14:20 | 52.53691 | 177.06071 | 4655 ft | 297 kts | 98° |
| 2026-05-06 14:20 | 52.53522 | 177.09453 | 4652 ft | 296 kts | 98° |
| 2026-05-06 14:21 | 52.53370 | 177.12814 | 4651 ft | 295 kts | 99° |
| 2026-05-06 14:21 | 52.53225 | 177.16161 | 4650 ft | 293 kts | 98° |
| 2026-05-06 14:21 | 52.53064 | 177.19500 | 4650 ft | 292 kts | 99° |
| 2026-05-06 14:21 | 52.52913 | 177.22831 | 4657 ft | 292 kts | 98° |
| 2026-05-06 14:22 | 52.52773 | 177.26148 | 4657 ft | 291 kts | 98° |
| 2026-05-06 14:22 | 52.52622 | 177.29453 | 4656 ft | 290 kts | 99° |
| 2026-05-06 14:22 | 52.52471 | 177.32713 | 4656 ft | 289 kts | 99° |
| 2026-05-06 14:22 | 52.52334 | 177.36005 | 4655 ft | 289 kts | 99° |
| 2026-05-06 14:23 | 52.52180 | 177.39298 | 4653 ft | 288 kts | 99° |
| 2026-05-06 14:23 | 52.52022 | 177.42576 | 4660 ft | 287 kts | 99° |
| 2026-05-06 14:23 | 52.51879 | 177.45842 | 4661 ft | 286 kts | 98° |
| 2026-05-06 14:23 | 52.51735 | 177.49095 | 4660 ft | 285 kts | 98° |
| 2026-05-06 14:24 | 52.51575 | 177.52339 | 4638 ft | 285 kts | 99° |
| 2026-05-06 14:24 | 52.51446 | 177.55589 | 4639 ft | 285 kts | 99° |
| 2026-05-06 14:24 | 52.51326 | 177.58835 | 4638 ft | 285 kts | 98° |
| 2026-05-06 14:24 | 52.51193 | 177.62079 | 4647 ft | 284 kts | 99° |
| 2026-05-06 14:25 | 52.51066 | 177.65314 | 4648 ft | 284 kts | 100° |
| 2026-05-06 14:25 | 52.50959 | 177.68539 | 4647 ft | 282 kts | 99° |
| 2026-05-06 14:25 | 52.50830 | 177.71747 | 4645 ft | 282 kts | 98° |
| 2026-05-06 14:25 | 52.50703 | 177.74909 | 4644 ft | 281 kts | 99° |
| 2026-05-06 14:26 | 52.50596 | 177.78114 | 4642 ft | 280 kts | 98° |
| 2026-05-06 14:26 | 52.50476 | 177.81295 | 4650 ft | 279 kts | 98° |
| 2026-05-06 14:26 | 52.50337 | 177.84464 | 4654 ft | 279 kts | 98° |
| 2026-05-06 14:26 | 52.50199 | 177.87640 | 4653 ft | 279 kts | 99° |
| 2026-05-06 14:27 | 52.50051 | 177.90808 | 4648 ft | 278 kts | 99° |
| 2026-05-06 14:27 | 52.49888 | 177.93965 | 4643 ft | 278 kts | 99° |
| 2026-05-06 14:27 | 52.49732 | 177.97127 | 4648 ft | 278 kts | 99° |
| 2026-05-06 14:27 | 52.49586 | 178.00284 | 4631 ft | 277 kts | 99° |
| 2026-05-06 14:28 | 52.49433 | 178.03435 | 4633 ft | 277 kts | 99° |
| 2026-05-06 14:28 | 52.49299 | 178.06593 | 4624 ft | 277 kts | 99° |
| 2026-05-06 14:28 | 52.49184 | 178.09750 | 4619 ft | 278 kts | 98° |
| 2026-05-06 14:28 | 52.49066 | 178.12918 | 4635 ft | 278 kts | 98° |
| 2026-05-06 14:29 | 52.48930 | 178.16086 | 4635 ft | 279 kts | 98° |
| 2026-05-06 14:29 | 52.48811 | 178.19263 | 4630 ft | 279 kts | 99° |
| 2026-05-06 14:29 | 52.48693 | 178.22447 | 4649 ft | 279 kts | 99° |
| 2026-05-06 14:29 | 52.48558 | 178.25622 | 4649 ft | 279 kts | 100° |
| 2026-05-06 14:30 | 52.48432 | 178.28801 | 4649 ft | 280 kts | 100° |
| 2026-05-06 14:30 | 52.48323 | 178.31994 | 4648 ft | 279 kts | 99° |
| 2026-05-06 14:30 | 52.48198 | 178.35166 | 4648 ft | 278 kts | 98° |
| 2026-05-06 14:30 | 52.48072 | 178.38291 | 4646 ft | 278 kts | 99° |
| 2026-05-06 14:31 | 52.47959 | 178.41459 | 4651 ft | 278 kts | 98° |
| 2026-05-06 14:31 | 52.47836 | 178.44622 | 4656 ft | 278 kts | 98° |
| 2026-05-06 14:31 | 52.47695 | 178.47779 | 4656 ft | 278 kts | 99° |
| 2026-05-06 14:31 | 52.47572 | 178.50935 | 4620 ft | 277 kts | 100° |
| 2026-05-06 14:32 | 52.47459 | 178.54090 | 4637 ft | 276 kts | 99° |
| 2026-05-06 14:32 | 52.47339 | 178.57228 | 4637 ft | 275 kts | 99° |
| 2026-05-06 14:32 | 52.47226 | 178.60354 | 4626 ft | 274 kts | 100° |
| 2026-05-06 14:32 | 52.47130 | 178.63483 | 4639 ft | 273 kts | 99° |
| 2026-05-06 14:33 | 52.47022 | 178.66587 | 4640 ft | 272 kts | 99° |
| 2026-05-06 14:33 | 52.46913 | 178.69681 | 4642 ft | 272 kts | 99° |
| 2026-05-06 14:33 | 52.46816 | 178.72773 | 4634 ft | 271 kts | 98° |
| 2026-05-06 14:33 | 52.46718 | 178.75858 | 4635 ft | 270 kts | 98° |
| 2026-05-06 14:34 | 52.46603 | 178.78928 | 4630 ft | 270 kts | 100° |
| 2026-05-06 14:34 | 52.46495 | 178.82000 | 4638 ft | 270 kts | 100° |
| 2026-05-06 14:34 | 52.46397 | 178.85032 | 4638 ft | 270 kts | 100° |
| 2026-05-06 14:34 | 52.46287 | 178.88106 | 4639 ft | 270 kts | 99° |
| 2026-05-06 14:35 | 52.46169 | 178.91183 | 4644 ft | 270 kts | 99° |
| 2026-05-06 14:35 | 52.46069 | 178.94258 | 4644 ft | 270 kts | 99° |
| 2026-05-06 14:35 | 52.45963 | 178.97327 | 4642 ft | 269 kts | 99° |
| 2026-05-06 14:35 | 52.45850 | 179.00393 | 4641 ft | 269 kts | 99° |
| 2026-05-06 14:36 | 52.45739 | 179.03451 | 4628 ft | 269 kts | 100° |
| 2026-05-06 14:36 | 52.45634 | 179.06503 | 4627 ft | 268 kts | 99° |
| 2026-05-06 14:36 | 52.45517 | 179.09551 | 4626 ft | 267 kts | 99° |
| 2026-05-06 14:36 | 52.45403 | 179.12593 | 4626 ft | 267 kts | 100° |
| 2026-05-06 14:37 | 52.45297 | 179.15638 | 4612 ft | 267 kts | 99° |
| 2026-05-06 14:37 | 52.45191 | 179.18686 | 4614 ft | 268 kts | 99° |
| 2026-05-06 14:37 | 52.45075 | 179.21732 | 4631 ft | 268 kts | 99° |
| 2026-05-06 14:37 | 52.44966 | 179.24781 | 4620 ft | 268 kts | 99° |
| 2026-05-06 14:38 | 52.44863 | 179.27841 | 4637 ft | 269 kts | 99° |
| 2026-05-06 14:38 | 52.44753 | 179.30902 | 4632 ft | 269 kts | 99° |
| 2026-05-06 14:38 | 52.44640 | 179.33926 | 4639 ft | 270 kts | 99° |
| 2026-05-06 14:38 | 52.44532 | 179.37002 | 4633 ft | 270 kts | 99° |
| 2026-05-06 14:39 | 52.44419 | 179.40083 | 4628 ft | 271 kts | 99° |
| 2026-05-06 14:39 | 52.44298 | 179.43171 | 4647 ft | 272 kts | 99° |
| 2026-05-06 14:39 | 52.44184 | 179.46273 | 4648 ft | 273 kts | 100° |
| 2026-05-06 14:39 | 52.44069 | 179.49378 | 4649 ft | 273 kts | 99° |
| 2026-05-06 14:40 | 52.43944 | 179.52486 | 4627 ft | 272 kts | 99° |
| 2026-05-06 14:40 | 52.43824 | 179.55577 | 4633 ft | 271 kts | 99° |
| 2026-05-06 14:40 | 52.43706 | 179.58646 | 4633 ft | 270 kts | 99° |
| 2026-05-06 14:40 | 52.43586 | 179.61709 | 4640 ft | 269 kts | 99° |
| 2026-05-06 14:41 | 52.43470 | 179.64768 | 4642 ft | 269 kts | 99° |
| 2026-05-06 14:41 | 52.43355 | 179.67826 | 4642 ft | 269 kts | 99° |
| 2026-05-06 14:41 | 52.43238 | 179.70881 | 4641 ft | 269 kts | 99° |
| 2026-05-06 14:41 | 52.43116 | 179.73940 | 4642 ft | 269 kts | 100° |
| 2026-05-06 14:42 | 52.42994 | 179.77001 | 4643 ft | 270 kts | 100° |
| 2026-05-06 14:42 | 52.42876 | 179.80070 | 4643 ft | 270 kts | 100° |
| 2026-05-06 14:42 | 52.42796 | 179.82101 | 4655 ft | 270 kts | 99° |
| 2026-05-06 14:42 | 52.42672 | 179.85169 | 4655 ft | 270 kts | 99° |
| 2026-05-06 14:43 | 52.42549 | 179.88244 | 4659 ft | 270 kts | 100° |
| 2026-05-06 14:43 | 52.42388 | 179.92322 | 4657 ft | 271 kts | 100° |
| 2026-05-06 14:43 | 52.42244 | 179.95394 | 4657 ft | 270 kts | 103° |
| 2026-05-06 14:43 | 52.42023 | 179.97424 | 4658 ft | 267 kts | 109° |
| 2026-05-06 14:44 | 52.41573 | -179.99631 | 4660 ft | 266 kts | 110° |
| 2026-05-06 14:44 | 52.41088 | -179.96748 | 4650 ft | 266 kts | 111° |
| 2026-05-06 14:44 | 52.40577 | -179.93846 | 4651 ft | 266 kts | 111° |
| 2026-05-06 14:45 | 52.39531 | -179.88034 | 4650 ft | 266 kts | 112° |
| 2026-05-06 14:45 | 52.38995 | -179.85087 | 4651 ft | 267 kts | 112° |
| 2026-05-06 14:45 | 52.38468 | -179.82211 | 4651 ft | 268 kts | 112° |
| 2026-05-06 14:45 | 52.37933 | -179.79293 | 4652 ft | 268 kts | 112° |
| 2026-05-06 14:46 | 52.37395 | -179.76367 | 4653 ft | 269 kts | 112° |
| 2026-05-06 14:46 | 52.36856 | -179.73436 | 4653 ft | 269 kts | 112° |
| 2026-05-06 14:46 | 52.36315 | -179.70500 | 4654 ft | 270 kts | 112° |
| 2026-05-06 14:46 | 52.35772 | -179.67553 | 4655 ft | 270 kts | 112° |
| 2026-05-06 14:47 | 52.35228 | -179.64609 | 4658 ft | 271 kts | 112° |
| 2026-05-06 14:47 | 52.34682 | -179.61654 | 4659 ft | 271 kts | 112° |
| 2026-05-06 14:47 | 52.34133 | -179.58697 | 4662 ft | 272 kts | 112° |
| 2026-05-06 14:47 | 52.33583 | -179.55732 | 4663 ft | 273 kts | 112° |
| 2026-05-06 14:48 | 52.33030 | -179.52763 | 4667 ft | 273 kts | 112° |
| 2026-05-06 14:48 | 52.32478 | -179.49796 | 4667 ft | 273 kts | 112° |
| 2026-05-06 14:48 | 52.31923 | -179.46830 | 4667 ft | 273 kts | 112° |
| 2026-05-06 14:48 | 52.31371 | -179.43865 | 4666 ft | 272 kts | 112° |
| 2026-05-06 14:49 | 52.30816 | -179.40903 | 4664 ft | 272 kts | 112° |
| 2026-05-06 14:49 | 52.30271 | -179.37983 | 4674 ft | 272 kts | 112° |
| 2026-05-06 14:49 | 52.29718 | -179.35030 | 4673 ft | 272 kts | 112° |
| 2026-05-06 14:49 | 52.29165 | -179.32074 | 4673 ft | 272 kts | 112° |
| 2026-05-06 14:50 | 52.28611 | -179.29121 | 4670 ft | 272 kts | 112° |
| 2026-05-06 14:50 | 52.28056 | -179.26164 | 4673 ft | 272 kts | 112° |
| 2026-05-06 14:50 | 52.27500 | -179.23210 | 4672 ft | 273 kts | 112° |
| 2026-05-06 14:50 | 52.26942 | -179.20246 | 4680 ft | 273 kts | 112° |
| 2026-05-06 14:51 | 52.26381 | -179.17284 | 4680 ft | 273 kts | 112° |
| 2026-05-06 14:51 | 52.25820 | -179.14324 | 4682 ft | 273 kts | 112° |
| 2026-05-06 14:51 | 52.25259 | -179.11363 | 4681 ft | 273 kts | 112° |
| 2026-05-06 14:51 | 52.24700 | -179.08410 | 4680 ft | 272 kts | 112° |
| 2026-05-06 14:52 | 52.24141 | -179.05456 | 4679 ft | 272 kts | 112° |
| 2026-05-06 14:52 | 52.23588 | -179.02536 | 4679 ft | 272 kts | 112° |
| 2026-05-06 14:52 | 52.23026 | -178.99586 | 4665 ft | 272 kts | 112° |
| 2026-05-06 14:52 | 52.22464 | -178.96632 | 4666 ft | 272 kts | 112° |
| 2026-05-06 14:53 | 52.21902 | -178.93686 | 4666 ft | 272 kts | 112° |
| 2026-05-06 14:53 | 52.21340 | -178.90733 | 4667 ft | 272 kts | 112° |
| 2026-05-06 14:53 | 52.20777 | -178.87781 | 4667 ft | 272 kts | 112° |
| 2026-05-06 14:53 | 52.20215 | -178.84831 | 4667 ft | 272 kts | 112° |
| 2026-05-06 14:54 | 52.19660 | -178.81919 | 4664 ft | 272 kts | 112° |
| 2026-05-06 14:54 | 52.19096 | -178.78965 | 4678 ft | 273 kts | 112° |
| 2026-05-06 14:54 | 52.18533 | -178.76014 | 4679 ft | 273 kts | 112° |
| 2026-05-06 14:54 | 52.17965 | -178.73052 | 4671 ft | 273 kts | 112° |
| 2026-05-06 14:55 | 52.17399 | -178.70098 | 4674 ft | 273 kts | 112° |
| 2026-05-06 14:55 | 52.16831 | -178.67143 | 4674 ft | 273 kts | 112° |
| 2026-05-06 14:55 | 52.16263 | -178.64188 | 4674 ft | 273 kts | 112° |
| 2026-05-06 14:55 | 52.15694 | -178.61244 | 4679 ft | 273 kts | 112° |
| 2026-05-06 14:56 | 52.15125 | -178.58291 | 4679 ft | 272 kts | 112° |
| 2026-05-06 14:56 | 52.14556 | -178.55351 | 4679 ft | 272 kts | 112° |
| 2026-05-06 14:56 | 52.13989 | -178.52419 | 4664 ft | 271 kts | 112° |
| 2026-05-06 14:56 | 52.13422 | -178.49495 | 4663 ft | 271 kts | 112° |
| 2026-05-06 14:57 | 52.12862 | -178.46614 | 4659 ft | 270 kts | 112° |
| 2026-05-06 14:57 | 52.12295 | -178.43700 | 4659 ft | 270 kts | 112° |
| 2026-05-06 14:57 | 52.11731 | -178.40794 | 4669 ft | 269 kts | 112° |
| 2026-05-06 14:57 | 52.11163 | -178.37880 | 4669 ft | 269 kts | 112° |
| 2026-05-06 14:58 | 52.10597 | -178.34977 | 4669 ft | 270 kts | 112° |
| 2026-05-06 14:58 | 52.10074 | -178.32035 | 4669 ft | 271 kts | 109° |
| 2026-05-06 14:58 | 52.09625 | -178.29043 | 4670 ft | 272 kts | 108° |
| 2026-05-06 14:58 | 52.09201 | -178.26039 | 4670 ft | 273 kts | 108° |
| 2026-05-06 14:59 | 52.08768 | -178.23032 | 4679 ft | 273 kts | 110° |
| 2026-05-06 14:59 | 52.08247 | -178.20062 | 4680 ft | 273 kts | 111° |
| 2026-05-06 14:59 | 52.07695 | -178.17113 | 4676 ft | 273 kts | 112° |
| 2026-05-06 14:59 | 52.07135 | -178.14195 | 4676 ft | 274 kts | 112° |
| 2026-05-06 15:00 | 52.06551 | -178.11199 | 4677 ft | 275 kts | 112° |
| 2026-05-06 15:00 | 52.05978 | -178.08278 | 4678 ft | 276 kts | 112° |
| 2026-05-06 15:00 | 52.05392 | -178.05311 | 4679 ft | 276 kts | 113° |
| 2026-05-06 15:00 | 52.04802 | -178.02334 | 4670 ft | 277 kts | 112° |
| 2026-05-06 15:01 | 52.04205 | -177.99357 | 4672 ft | 278 kts | 112° |
| 2026-05-06 15:01 | 52.03631 | -177.96344 | 4673 ft | 280 kts | 110° |
| 2026-05-06 15:01 | 52.03176 | -177.93258 | 4674 ft | 283 kts | 106° |
| 2026-05-06 15:01 | 52.02836 | -177.90100 | 4675 ft | 285 kts | 104° |
| 2026-05-06 15:02 | 52.02536 | -177.86909 | 4676 ft | 286 kts | 104° |
| 2026-05-06 15:02 | 52.02231 | -177.83713 | 4684 ft | 287 kts | 104° |
| 2026-05-06 15:02 | 52.01900 | -177.80523 | 4685 ft | 287 kts | 105° |
| 2026-05-06 15:02 | 52.01524 | -177.77343 | 4686 ft | 287 kts | 106° |
| 2026-05-06 15:03 | 52.01129 | -177.74159 | 4686 ft | 287 kts | 107° |
| 2026-05-06 15:03 | 52.00722 | -177.70986 | 4687 ft | 287 kts | 107° |
| 2026-05-06 15:03 | 52.00312 | -177.67803 | 4687 ft | 287 kts | 107° |
| 2026-05-06 15:03 | 51.99896 | -177.64636 | 4699 ft | 287 kts | 107° |
| 2026-05-06 15:04 | 51.99484 | -177.61498 | 4699 ft | 288 kts | 107° |
| 2026-05-06 15:04 | 51.99064 | -177.58315 | 4699 ft | 288 kts | 107° |
| 2026-05-06 15:04 | 51.98645 | -177.55134 | 4682 ft | 289 kts | 107° |
| 2026-05-06 15:04 | 51.98220 | -177.51946 | 4681 ft | 289 kts | 107° |
| 2026-05-06 15:05 | 51.97787 | -177.48756 | 4678 ft | 289 kts | 107° |
| 2026-05-06 15:05 | 51.97351 | -177.45572 | 4678 ft | 290 kts | 107° |
| 2026-05-06 15:05 | 51.96914 | -177.42378 | 4678 ft | 290 kts | 107° |
| 2026-05-06 15:05 | 51.96474 | -177.39181 | 4679 ft | 290 kts | 107° |
| 2026-05-06 15:06 | 51.96035 | -177.35990 | 4682 ft | 290 kts | 107° |
| 2026-05-06 15:06 | 51.95595 | -177.32797 | 4682 ft | 290 kts | 107° |
| 2026-05-06 15:06 | 51.95157 | -177.29615 | 4683 ft | 289 kts | 107° |
| 2026-05-06 15:06 | 51.94717 | -177.26432 | 4688 ft | 289 kts | 107° |
| 2026-05-06 15:07 | 51.94283 | -177.23296 | 4687 ft | 288 kts | 107° |
| 2026-05-06 15:07 | 51.93844 | -177.20128 | 4686 ft | 288 kts | 107° |
| 2026-05-06 15:07 | 51.93406 | -177.16963 | 4686 ft | 288 kts | 107° |
| 2026-05-06 15:07 | 51.92956 | -177.13804 | 4689 ft | 287 kts | 107° |
| 2026-05-06 15:08 | 51.92519 | -177.10643 | 4691 ft | 288 kts | 105° |
| 2026-05-06 15:08 | 51.92558 | -177.07373 | 4676 ft | 300 kts | 79° |
| 2026-05-06 15:08 | 51.93429 | -177.04266 | 4684 ft | 304 kts | 67° |
| 2026-05-06 15:08 | 51.94383 | -177.01201 | 4690 ft | 304 kts | 68° |
| 2026-05-06 15:09 | 51.95340 | -176.98148 | 4691 ft | 304 kts | 68° |
| 2026-05-06 15:09 | 51.96309 | -176.95102 | 4694 ft | 304 kts | 67° |
| 2026-05-06 15:09 | 51.97286 | -176.92062 | 4693 ft | 304 kts | 67° |
| 2026-05-06 15:09 | 51.98262 | -176.89025 | 4694 ft | 303 kts | 67° |
| 2026-05-06 15:10 | 51.99237 | -176.85994 | 4701 ft | 303 kts | 67° |
| 2026-05-06 15:10 | 52.00201 | -176.82995 | 4700 ft | 303 kts | 67° |
| 2026-05-06 15:10 | 52.01171 | -176.79963 | 4689 ft | 302 kts | 67° |
| 2026-05-06 15:10 | 52.02142 | -176.76926 | 4687 ft | 303 kts | 67° |
| 2026-05-06 15:11 | 52.03109 | -176.73893 | 4690 ft | 303 kts | 67° |
| 2026-05-06 15:11 | 52.04075 | -176.70857 | 4695 ft | 303 kts | 67° |
| 2026-05-06 15:11 | 52.05040 | -176.67818 | 4698 ft | 303 kts | 67° |
| 2026-05-06 15:11 | 52.06002 | -176.64775 | 4706 ft | 303 kts | 67° |
| 2026-05-06 15:12 | 52.06969 | -176.61724 | 4706 ft | 303 kts | 67° |
| 2026-05-06 15:12 | 52.07934 | -176.58668 | 4707 ft | 303 kts | 67° |
| 2026-05-06 15:12 | 52.08896 | -176.55626 | 4689 ft | 303 kts | 68° |
| 2026-05-06 15:12 | 52.09858 | -176.52583 | 4689 ft | 302 kts | 67° |
| 2026-05-06 15:13 | 52.10819 | -176.49538 | 4687 ft | 302 kts | 67° |
| 2026-05-06 15:13 | 52.11779 | -176.46501 | 4687 ft | 302 kts | 68° |
| 2026-05-06 15:13 | 52.12737 | -176.43463 | 4696 ft | 301 kts | 68° |
| 2026-05-06 15:13 | 52.13694 | -176.40431 | 4697 ft | 301 kts | 67° |
| 2026-05-06 15:14 | 52.14640 | -176.37441 | 4697 ft | 301 kts | 68° |
| 2026-05-06 15:14 | 52.15597 | -176.34416 | 4697 ft | 301 kts | 68° |
| 2026-05-06 15:14 | 52.16502 | -176.31345 | 4696 ft | 300 kts | 71° |
| 2026-05-06 15:14 | 52.17304 | -176.28213 | 4697 ft | 300 kts | 72° |
| 2026-05-06 15:15 | 52.18063 | -176.25046 | 4700 ft | 300 kts | 74° |
| 2026-05-06 15:15 | 52.18804 | -176.21856 | 4701 ft | 301 kts | 74° |
| 2026-05-06 15:15 | 52.19534 | -176.18655 | 4702 ft | 302 kts | 74° |
| 2026-05-06 15:15 | 52.20262 | -176.15443 | 4703 ft | 302 kts | 75° |
| 2026-05-06 15:16 | 52.21023 | -176.12232 | 4704 ft | 304 kts | 72° |
| 2026-05-06 15:16 | 52.21850 | -176.09053 | 4705 ft | 305 kts | 71° |
| 2026-05-06 15:16 | 52.22696 | -176.05873 | 4705 ft | 306 kts | 71° |
| 2026-05-06 15:16 | 52.23548 | -176.02697 | 4690 ft | 306 kts | 71° |
| 2026-05-06 15:17 | 52.24399 | -175.99528 | 4693 ft | 305 kts | 70° |
| 2026-05-06 15:17 | 52.25255 | -175.96346 | 4692 ft | 305 kts | 71° |
| 2026-05-06 15:17 | 52.26096 | -175.93211 | 4692 ft | 305 kts | 71° |
| 2026-05-06 15:17 | 52.26948 | -175.90038 | 4692 ft | 305 kts | 71° |
| 2026-05-06 15:18 | 52.27798 | -175.86865 | 4689 ft | 305 kts | 71° |
| 2026-05-06 15:18 | 52.28650 | -175.83698 | 4694 ft | 305 kts | 71° |
| 2026-05-06 15:18 | 52.29502 | -175.80527 | 4694 ft | 304 kts | 71° |
| 2026-05-06 15:18 | 52.30353 | -175.77361 | 4694 ft | 304 kts | 71° |
| 2026-05-06 15:19 | 52.31204 | -175.74189 | 4700 ft | 304 kts | 71° |
| 2026-05-06 15:19 | 52.32052 | -175.71023 | 4699 ft | 304 kts | 71° |
| 2026-05-06 15:19 | 52.32900 | -175.67851 | 4700 ft | 304 kts | 71° |
| 2026-05-06 15:19 | 52.33738 | -175.64675 | 4699 ft | 304 kts | 71° |
| 2026-05-06 15:20 | 52.34550 | -175.61528 | 4702 ft | 304 kts | 71° |
| 2026-05-06 15:20 | 52.35365 | -175.58335 | 4703 ft | 304 kts | 72° |
| 2026-05-06 15:20 | 52.36179 | -175.55135 | 4703 ft | 304 kts | 72° |
| 2026-05-06 15:20 | 52.36989 | -175.51927 | 4683 ft | 304 kts | 72° |
| 2026-05-06 15:21 | 52.37793 | -175.48728 | 4683 ft | 304 kts | 72° |
| 2026-05-06 15:21 | 52.38594 | -175.45523 | 4683 ft | 304 kts | 72° |
| 2026-05-06 15:21 | 52.39396 | -175.42319 | 4695 ft | 304 kts | 72° |
| 2026-05-06 15:21 | 52.40194 | -175.39119 | 4693 ft | 304 kts | 72° |
| 2026-05-06 15:22 | 52.40992 | -175.35919 | 4693 ft | 303 kts | 72° |
| 2026-05-06 15:22 | 52.41791 | -175.32717 | 4693 ft | 303 kts | 72° |
| 2026-05-06 15:22 | 52.42589 | -175.29517 | 4693 ft | 303 kts | 72° |
| 2026-05-06 15:22 | 52.43389 | -175.26320 | 4690 ft | 303 kts | 72° |
| 2026-05-06 15:23 | 52.44188 | -175.23127 | 4687 ft | 303 kts | 72° |
| 2026-05-06 15:23 | 52.44989 | -175.19930 | 4696 ft | 303 kts | 72° |
| 2026-05-06 15:23 | 52.45779 | -175.16781 | 4696 ft | 303 kts | 72° |
| 2026-05-06 15:23 | 52.46588 | -175.13549 | 4696 ft | 303 kts | 72° |
| 2026-05-06 15:24 | 52.47387 | -175.10357 | 4696 ft | 303 kts | 72° |
| 2026-05-06 15:24 | 52.48174 | -175.07203 | 4695 ft | 303 kts | 72° |
| 2026-05-06 15:24 | 52.48972 | -175.04005 | 4696 ft | 303 kts | 72° |
| 2026-05-06 15:24 | 52.49768 | -175.00807 | 4703 ft | 303 kts | 72° |
| 2026-05-06 15:25 | 52.50558 | -174.97602 | 4688 ft | 303 kts | 72° |
| 2026-05-06 15:25 | 52.51339 | -174.94393 | 4688 ft | 303 kts | 72° |
| 2026-05-06 15:25 | 52.52119 | -174.91190 | 4688 ft | 302 kts | 72° |
| 2026-05-06 15:25 | 52.52898 | -174.87973 | 4689 ft | 303 kts | 72° |
| 2026-05-06 15:26 | 52.53677 | -174.84760 | 4694 ft | 303 kts | 72° |
| 2026-05-06 15:26 | 52.54453 | -174.81546 | 4691 ft | 303 kts | 72° |
| 2026-05-06 15:26 | 52.55230 | -174.78329 | 4691 ft | 303 kts | 72° |
| 2026-05-06 15:26 | 52.56007 | -174.75107 | 4697 ft | 303 kts | 72° |
| 2026-05-06 15:27 | 52.56785 | -174.71887 | 4691 ft | 303 kts | 72° |
| 2026-05-06 15:27 | 52.57563 | -174.68662 | 4691 ft | 303 kts | 72° |
| 2026-05-06 15:27 | 52.58340 | -174.65436 | 4691 ft | 303 kts | 72° |
| 2026-05-06 15:27 | 52.59116 | -174.62211 | 4691 ft | 304 kts | 72° |
| 2026-05-06 15:28 | 52.59895 | -174.58981 | 4702 ft | 304 kts | 72° |
| 2026-05-06 15:28 | 52.60693 | -174.55809 | 4702 ft | 304 kts | 71° |
| 2026-05-06 15:28 | 52.61525 | -174.52606 | 4703 ft | 304 kts | 71° |
| 2026-05-06 15:28 | 52.62343 | -174.49399 | 4703 ft | 304 kts | 71° |
| 2026-05-06 15:29 | 52.63157 | -174.46184 | 4706 ft | 304 kts | 71° |
| 2026-05-06 15:29 | 52.63967 | -174.42969 | 4699 ft | 303 kts | 71° |
| 2026-05-06 15:29 | 52.64774 | -174.39758 | 4700 ft | 303 kts | 71° |
| 2026-05-06 15:29 | 52.65577 | -174.36548 | 4705 ft | 303 kts | 71° |
| 2026-05-06 15:30 | 52.66381 | -174.33341 | 4702 ft | 303 kts | 71° |
| 2026-05-06 15:30 | 52.66911 | -174.31219 | 4702 ft | 303 kts | 71° |
| 2026-05-06 15:30 | 52.67715 | -174.28012 | 4702 ft | 303 kts | 71° |
| 2026-05-06 15:30 | 52.68519 | -174.24805 | 4701 ft | 303 kts | 71° |
| 2026-05-06 15:31 | 52.69326 | -174.21593 | 4701 ft | 303 kts | 71° |
| 2026-05-06 15:31 | 52.70130 | -174.18379 | 4701 ft | 303 kts | 71° |
| 2026-05-06 15:31 | 52.70936 | -174.15160 | 4707 ft | 303 kts | 71° |
| 2026-05-06 15:32 | 52.72543 | -174.08726 | 4707 ft | 303 kts | 71° |
| 2026-05-06 15:32 | 52.73336 | -174.05553 | 4707 ft | 303 kts | 71° |
| 2026-05-06 15:32 | 52.74134 | -174.02338 | 4709 ft | 302 kts | 71° |
| 2026-05-06 15:32 | 52.74930 | -173.99132 | 4709 ft | 302 kts | 71° |
| 2026-05-06 15:33 | 52.75725 | -173.95925 | 4699 ft | 302 kts | 71° |
| 2026-05-06 15:33 | 52.76522 | -173.92729 | 4694 ft | 301 kts | 71° |
| 2026-05-06 15:33 | 52.77323 | -173.89532 | 4693 ft | 301 kts | 71° |
| 2026-05-06 15:33 | 52.78122 | -173.86339 | 4693 ft | 300 kts | 72° |
| 2026-05-06 15:34 | 52.78919 | -173.83163 | 4693 ft | 299 kts | 71° |
| 2026-05-06 15:34 | 52.79705 | -173.79978 | 4692 ft | 298 kts | 72° |
| 2026-05-06 15:34 | 52.80473 | -173.76802 | 4693 ft | 297 kts | 72° |
| 2026-05-06 15:34 | 52.81227 | -173.73629 | 4697 ft | 296 kts | 73° |
| 2026-05-06 15:35 | 52.81983 | -173.70459 | 4696 ft | 295 kts | 72° |
| 2026-05-06 15:35 | 52.82729 | -173.67300 | 4694 ft | 294 kts | 72° |
| 2026-05-06 15:35 | 52.83473 | -173.64160 | 4693 ft | 293 kts | 72° |
| 2026-05-06 15:35 | 52.84211 | -173.61025 | 4680 ft | 292 kts | 72° |
| 2026-05-06 15:36 | 52.84949 | -173.57899 | 4679 ft | 291 kts | 73° |
| 2026-05-06 15:36 | 52.85682 | -173.54787 | 4678 ft | 290 kts | 72° |
| 2026-05-06 15:36 | 52.86413 | -173.51685 | 4685 ft | 289 kts | 72° |
| 2026-05-06 15:36 | 52.87143 | -173.48593 | 4683 ft | 287 kts | 72° |
| 2026-05-06 15:37 | 52.87859 | -173.45557 | 4685 ft | 286 kts | 73° |
| 2026-05-06 15:37 | 52.88584 | -173.42497 | 4684 ft | 285 kts | 73° |
| 2026-05-06 15:37 | 52.89301 | -173.39439 | 4672 ft | 284 kts | 72° |
| 2026-05-06 15:37 | 52.90008 | -173.36389 | 4670 ft | 283 kts | 72° |
| 2026-05-06 15:38 | 52.90708 | -173.33350 | 4669 ft | 282 kts | 73° |
| 2026-05-06 15:38 | 52.91403 | -173.30317 | 4674 ft | 280 kts | 73° |
| 2026-05-06 15:38 | 52.92073 | -173.27292 | 4672 ft | 279 kts | 74° |
| 2026-05-06 15:38 | 52.92737 | -173.24276 | 4671 ft | 278 kts | 73° |
| 2026-05-06 15:39 | 52.93390 | -173.21269 | 4669 ft | 277 kts | 74° |
| 2026-05-06 15:39 | 52.94047 | -173.18268 | 4663 ft | 276 kts | 73° |
| 2026-05-06 15:39 | 52.94699 | -173.15281 | 4665 ft | 275 kts | 74° |
| 2026-05-06 15:39 | 52.95345 | -173.12341 | 4664 ft | 274 kts | 74° |
| 2026-05-06 15:40 | 52.95991 | -173.09379 | 4672 ft | 273 kts | 74° |
| 2026-05-06 15:40 | 52.96636 | -173.06430 | 4673 ft | 272 kts | 74° |
| 2026-05-06 15:40 | 52.97277 | -173.03488 | 4671 ft | 271 kts | 74° |
| 2026-05-06 15:40 | 52.97921 | -173.00550 | 4656 ft | 269 kts | 74° |
| 2026-05-06 15:41 | 52.98556 | -172.97637 | 4663 ft | 268 kts | 74° |
| 2026-05-06 15:41 | 52.99191 | -172.94730 | 4663 ft | 267 kts | 74° |
| 2026-05-06 15:41 | 52.99817 | -172.91835 | 4667 ft | 266 kts | 74° |
| 2026-05-06 15:41 | 53.00446 | -172.88940 | 4663 ft | 266 kts | 74° |
| 2026-05-06 15:42 | 53.01069 | -172.86057 | 4659 ft | 265 kts | 74° |
| 2026-05-06 15:42 | 53.01685 | -172.83188 | 4659 ft | 263 kts | 73° |
| 2026-05-06 15:42 | 53.02300 | -172.80330 | 4646 ft | 262 kts | 74° |
| 2026-05-06 15:42 | 53.02909 | -172.77484 | 4655 ft | 261 kts | 74° |
| 2026-05-06 15:43 | 53.03519 | -172.74656 | 4650 ft | 259 kts | 74° |
| 2026-05-06 15:43 | 53.04118 | -172.71835 | 4649 ft | 258 kts | 74° |
| 2026-05-06 15:43 | 53.04711 | -172.69065 | 4647 ft | 257 kts | 73° |
| 2026-05-06 15:43 | 53.05308 | -172.66275 | 4634 ft | 256 kts | 75° |
| 2026-05-06 15:44 | 53.05908 | -172.63492 | 4646 ft | 255 kts | 74° |
| 2026-05-06 15:44 | 53.06503 | -172.60712 | 4640 ft | 255 kts | 74° |
| 2026-05-06 15:44 | 53.07100 | -172.57940 | 4645 ft | 255 kts | 74° |
| 2026-05-06 15:44 | 53.07694 | -172.55162 | 4644 ft | 254 kts | 74° |
| 2026-05-06 15:45 | 53.08288 | -172.52389 | 4640 ft | 254 kts | 74° |
| 2026-05-06 15:45 | 53.08879 | -172.49619 | 4637 ft | 254 kts | 74° |
| 2026-05-06 15:45 | 53.09469 | -172.46851 | 4631 ft | 253 kts | 74° |
| 2026-05-06 15:45 | 53.10060 | -172.44083 | 4641 ft | 253 kts | 74° |
| 2026-05-06 15:46 | 53.10638 | -172.41358 | 4642 ft | 253 kts | 75° |
| 2026-05-06 15:46 | 53.11227 | -172.38596 | 4640 ft | 253 kts | 74° |
| 2026-05-06 15:46 | 53.11827 | -172.35840 | 4648 ft | 253 kts | 72° |
| 2026-05-06 15:46 | 53.12496 | -172.33125 | 4633 ft | 254 kts | 70° |
| 2026-05-06 15:47 | 53.13179 | -172.30417 | 4640 ft | 254 kts | 71° |
| 2026-05-06 15:47 | 53.13872 | -172.27712 | 4641 ft | 254 kts | 70° |
| 2026-05-06 15:47 | 53.14562 | -172.25008 | 4639 ft | 253 kts | 70° |
| 2026-05-06 15:47 | 53.15257 | -172.22311 | 4639 ft | 253 kts | 70° |
| 2026-05-06 15:48 | 53.15948 | -172.19613 | 4642 ft | 253 kts | 70° |
| 2026-05-06 15:48 | 53.16635 | -172.16912 | 4643 ft | 253 kts | 71° |
| 2026-05-06 15:48 | 53.17272 | -172.14180 | 4633 ft | 252 kts | 73° |
| 2026-05-06 15:48 | 53.17890 | -172.11451 | 4630 ft | 252 kts | 73° |
| 2026-05-06 15:49 | 53.18500 | -172.08709 | 4640 ft | 252 kts | 73° |
| 2026-05-06 15:49 | 53.19108 | -172.05967 | 4645 ft | 252 kts | 73° |
| 2026-05-06 15:49 | 53.19714 | -172.03223 | 4648 ft | 252 kts | 73° |
| 2026-05-06 15:49 | 53.20310 | -172.00509 | 4646 ft | 252 kts | 73° |
| 2026-05-06 15:50 | 53.20901 | -171.97752 | 4651 ft | 252 kts | 74° |
| 2026-05-06 15:50 | 53.21476 | -171.94990 | 4645 ft | 252 kts | 74° |
| 2026-05-06 15:50 | 53.22051 | -171.92221 | 4649 ft | 252 kts | 74° |
| 2026-05-06 15:50 | 53.22620 | -171.89454 | 4649 ft | 252 kts | 75° |
| 2026-05-06 15:51 | 53.23198 | -171.86687 | 4646 ft | 252 kts | 74° |
| 2026-05-06 15:51 | 53.23773 | -171.83924 | 4647 ft | 252 kts | 75° |
| 2026-05-06 15:51 | 53.24347 | -171.81163 | 4647 ft | 252 kts | 75° |
| 2026-05-06 15:51 | 53.24922 | -171.78393 | 4642 ft | 252 kts | 74° |
| 2026-05-06 15:52 | 53.25494 | -171.75622 | 4631 ft | 253 kts | 74° |
| 2026-05-06 15:52 | 53.26064 | -171.72844 | 4640 ft | 253 kts | 75° |
| 2026-05-06 15:52 | 53.26633 | -171.70062 | 4645 ft | 253 kts | 75° |
| 2026-05-06 15:52 | 53.27194 | -171.67313 | 4639 ft | 253 kts | 75° |
| 2026-05-06 15:53 | 53.27764 | -171.64520 | 4638 ft | 253 kts | 75° |
| 2026-05-06 15:53 | 53.28334 | -171.61736 | 4641 ft | 253 kts | 74° |
| 2026-05-06 15:53 | 53.28901 | -171.58946 | 4646 ft | 254 kts | 75° |
| 2026-05-06 15:53 | 53.29469 | -171.56156 | 4638 ft | 254 kts | 75° |
| 2026-05-06 15:54 | 53.30050 | -171.53359 | 4650 ft | 254 kts | 73° |
| 2026-05-06 15:54 | 53.30660 | -171.50580 | 4651 ft | 255 kts | 73° |
| 2026-05-06 15:54 | 53.31282 | -171.47797 | 4644 ft | 255 kts | 73° |
| 2026-05-06 15:54 | 53.31907 | -171.45015 | 4651 ft | 255 kts | 73° |
| 2026-05-06 15:55 | 53.32525 | -171.42271 | 4642 ft | 256 kts | 72° |
| 2026-05-06 15:55 | 53.33154 | -171.39488 | 4641 ft | 256 kts | 73° |
| 2026-05-06 15:55 | 53.33783 | -171.36701 | 4657 ft | 257 kts | 72° |
| 2026-05-06 15:55 | 53.34412 | -171.33905 | 4661 ft | 257 kts | 72° |
| 2026-05-06 15:56 | 53.35042 | -171.31112 | 4656 ft | 256 kts | 72° |
| 2026-05-06 15:56 | 53.35669 | -171.28316 | 4661 ft | 256 kts | 73° |
| 2026-05-06 15:56 | 53.36296 | -171.25527 | 4657 ft | 256 kts | 72° |
| 2026-05-06 15:56 | 53.36921 | -171.22737 | 4649 ft | 256 kts | 73° |
| 2026-05-06 15:57 | 53.37549 | -171.19938 | 4649 ft | 257 kts | 72° |
| 2026-05-06 15:57 | 53.38177 | -171.17129 | 4637 ft | 258 kts | 73° |
| 2026-05-06 15:57 | 53.38808 | -171.14315 | 4650 ft | 259 kts | 72° |
| 2026-05-06 15:57 | 53.39440 | -171.11487 | 4652 ft | 260 kts | 72° |
| 2026-05-06 15:58 | 53.40073 | -171.08641 | 4658 ft | 260 kts | 73° |
| 2026-05-06 15:58 | 53.40658 | -171.05765 | 4660 ft | 261 kts | 75° |
| 2026-05-06 15:58 | 53.41217 | -171.02871 | 4657 ft | 261 kts | 75° |
| 2026-05-06 15:58 | 53.41767 | -170.99962 | 4659 ft | 262 kts | 76° |
| 2026-05-06 15:59 | 53.42310 | -170.97045 | 4651 ft | 262 kts | 76° |
| 2026-05-06 15:59 | 53.42854 | -170.94128 | 4662 ft | 263 kts | 76° |
| 2026-05-06 15:59 | 53.43391 | -170.91224 | 4653 ft | 263 kts | 76° |
| 2026-05-06 15:59 | 53.43941 | -170.88264 | 4666 ft | 264 kts | 76° |
| 2026-05-06 16:00 | 53.44484 | -170.85313 | 4653 ft | 265 kts | 76° |
| 2026-05-06 16:00 | 53.45027 | -170.82391 | 4668 ft | 266 kts | 76° |
| 2026-05-06 16:00 | 53.45579 | -170.79403 | 4659 ft | 267 kts | 76° |
| 2026-05-06 16:00 | 53.46131 | -170.76418 | 4671 ft | 268 kts | 76° |
| 2026-05-06 16:01 | 53.46683 | -170.73419 | 4674 ft | 270 kts | 76° |
| 2026-05-06 16:01 | 53.47239 | -170.70403 | 4675 ft | 271 kts | 75° |
| 2026-05-06 16:01 | 53.47834 | -170.67389 | 4672 ft | 272 kts | 74° |
| 2026-05-06 16:01 | 53.48438 | -170.64367 | 4672 ft | 275 kts | 74° |
| 2026-05-06 16:02 | 53.49051 | -170.61295 | 4677 ft | 280 kts | 74° |
| 2026-05-06 16:02 | 53.49674 | -170.58170 | 4683 ft | 285 kts | 74° |
| 2026-05-06 16:02 | 53.50301 | -170.55031 | 4688 ft | 289 kts | 74° |
| 2026-05-06 16:02 | 53.50939 | -170.51812 | 4692 ft | 292 kts | 74° |
| 2026-05-06 16:03 | 53.51583 | -170.48569 | 4694 ft | 294 kts | 74° |
| 2026-05-06 16:03 | 53.52228 | -170.45292 | 4697 ft | 295 kts | 74° |
| 2026-05-06 16:03 | 53.52878 | -170.42013 | 4701 ft | 297 kts | 74° |
| 2026-05-06 16:03 | 53.53525 | -170.38715 | 4702 ft | 297 kts | 74° |
| 2026-05-06 16:04 | 53.54176 | -170.35412 | 4703 ft | 298 kts | 74° |
| 2026-05-06 16:04 | 53.54827 | -170.32093 | 4704 ft | 298 kts | 74° |
| 2026-05-06 16:04 | 53.55480 | -170.28775 | 4707 ft | 299 kts | 74° |
| 2026-05-06 16:04 | 53.56137 | -170.25446 | 4707 ft | 299 kts | 73° |
| 2026-05-06 16:05 | 53.56805 | -170.22179 | 4706 ft | 299 kts | 73° |
| 2026-05-06 16:05 | 53.57486 | -170.18870 | 4707 ft | 299 kts | 73° |
| 2026-05-06 16:05 | 53.58174 | -170.15554 | 4709 ft | 300 kts | 73° |
| 2026-05-06 16:05 | 53.58860 | -170.12240 | 4707 ft | 300 kts | 73° |
| 2026-05-06 16:06 | 53.59548 | -170.08920 | 4700 ft | 300 kts | 73° |
| 2026-05-06 16:06 | 53.60220 | -170.05597 | 4702 ft | 300 kts | 73° |
| 2026-05-06 16:06 | 53.60892 | -170.02263 | 4700 ft | 300 kts | 73° |
| 2026-05-06 16:06 | 53.61560 | -169.98926 | 4701 ft | 300 kts | 73° |
| 2026-05-06 16:07 | 53.62227 | -169.95594 | 4697 ft | 300 kts | 73° |
| 2026-05-06 16:07 | 53.62893 | -169.92258 | 4700 ft | 300 kts | 73° |
| 2026-05-06 16:07 | 53.63560 | -169.88921 | 4700 ft | 300 kts | 73° |
| 2026-05-06 16:07 | 53.64226 | -169.85582 | 4701 ft | 301 kts | 73° |
| 2026-05-06 16:08 | 53.64890 | -169.82241 | 4700 ft | 300 kts | 73° |
| 2026-05-06 16:08 | 53.65554 | -169.78899 | 4700 ft | 301 kts | 73° |
| 2026-05-06 16:08 | 53.66210 | -169.75584 | 4701 ft | 301 kts | 73° |
| 2026-05-06 16:08 | 53.66872 | -169.72242 | 4702 ft | 300 kts | 73° |
| 2026-05-06 16:09 | 53.67536 | -169.68894 | 4702 ft | 301 kts | 73° |
| 2026-05-06 16:09 | 53.68199 | -169.65551 | 4700 ft | 301 kts | 73° |
| 2026-05-06 16:09 | 53.68859 | -169.62209 | 4701 ft | 300 kts | 73° |
| 2026-05-06 16:09 | 53.69523 | -169.58853 | 4706 ft | 301 kts | 73° |
| 2026-05-06 16:10 | 53.70181 | -169.55511 | 4706 ft | 300 kts | 73° |
| 2026-05-06 16:10 | 53.70842 | -169.52158 | 4704 ft | 300 kts | 73° |
| 2026-05-06 16:10 | 53.71491 | -169.48848 | 4696 ft | 301 kts | 73° |
| 2026-05-06 16:10 | 53.72148 | -169.45490 | 4695 ft | 301 kts | 73° |
| 2026-05-06 16:11 | 53.72801 | -169.42134 | 4696 ft | 301 kts | 73° |
| 2026-05-06 16:11 | 53.73455 | -169.38775 | 4696 ft | 301 kts | 73° |
| 2026-05-06 16:11 | 53.74107 | -169.35406 | 4696 ft | 301 kts | 73° |
| 2026-05-06 16:11 | 53.74759 | -169.32048 | 4696 ft | 301 kts | 73° |
| 2026-05-06 16:12 | 53.75410 | -169.28683 | 4701 ft | 301 kts | 73° |
| 2026-05-06 16:12 | 53.76063 | -169.25318 | 4699 ft | 301 kts | 73° |
| 2026-05-06 16:12 | 53.76715 | -169.21951 | 4696 ft | 301 kts | 73° |
| 2026-05-06 16:12 | 53.77371 | -169.18587 | 4696 ft | 301 kts | 73° |
| 2026-05-06 16:13 | 53.78026 | -169.15216 | 4698 ft | 301 kts | 73° |
| 2026-05-06 16:13 | 53.78683 | -169.11856 | 4698 ft | 301 kts | 73° |
| 2026-05-06 16:13 | 53.79338 | -169.08482 | 4701 ft | 301 kts | 73° |
| 2026-05-06 16:13 | 53.79996 | -169.05112 | 4699 ft | 301 kts | 73° |
| 2026-05-06 16:14 | 53.80647 | -169.01747 | 4698 ft | 301 kts | 73° |
| 2026-05-06 16:14 | 53.81303 | -168.98373 | 4698 ft | 301 kts | 73° |
| 2026-05-06 16:14 | 53.81955 | -168.95003 | 4698 ft | 301 kts | 73° |
| 2026-05-06 16:14 | 53.82610 | -168.91630 | 4700 ft | 301 kts | 73° |
| 2026-05-06 16:15 | 53.83260 | -168.88272 | 4704 ft | 301 kts | 73° |
| 2026-05-06 16:15 | 53.83913 | -168.84900 | 4704 ft | 301 kts | 73° |
| 2026-05-06 16:15 | 53.84562 | -168.81530 | 4704 ft | 301 kts | 73° |
| 2026-05-06 16:15 | 53.85215 | -168.78155 | 4705 ft | 301 kts | 73° |
| 2026-05-06 16:16 | 53.85864 | -168.74783 | 4708 ft | 301 kts | 73° |
| 2026-05-06 16:16 | 53.86516 | -168.71411 | 4706 ft | 301 kts | 73° |
| 2026-05-06 16:16 | 53.87165 | -168.68041 | 4707 ft | 301 kts | 73° |
| 2026-05-06 16:16 | 53.87815 | -168.64667 | 4707 ft | 301 kts | 73° |
| 2026-05-06 16:17 | 53.88242 | -168.62429 | 4704 ft | 301 kts | 73° |
| 2026-05-06 16:17 | 53.88891 | -168.59049 | 4707 ft | 301 kts | 73° |
| 2026-05-06 16:17 | 53.89536 | -168.55672 | 4708 ft | 301 kts | 74° |
| 2026-05-06 16:17 | 53.90395 | -168.51189 | 4712 ft | 301 kts | 74° |
| 2026-05-06 16:18 | 53.90831 | -168.48906 | 4711 ft | 301 kts | 74° |
| 2026-05-06 16:18 | 53.91478 | -168.45529 | 4711 ft | 301 kts | 73° |
| 2026-05-06 16:18 | 53.92117 | -168.42175 | 4710 ft | 301 kts | 74° |
| 2026-05-06 16:18 | 53.92763 | -168.38796 | 4710 ft | 301 kts | 73° |
| 2026-05-06 16:19 | 53.93402 | -168.35412 | 4699 ft | 301 kts | 74° |
| 2026-05-06 16:19 | 53.94043 | -168.32034 | 4700 ft | 301 kts | 74° |
| 2026-05-06 16:19 | 53.94689 | -168.28656 | 4701 ft | 300 kts | 74° |
| 2026-05-06 16:19 | 53.95339 | -168.25287 | 4700 ft | 300 kts | 73° |
| 2026-05-06 16:20 | 53.95983 | -168.21921 | 4702 ft | 300 kts | 74° |
| 2026-05-06 16:20 | 53.96634 | -168.18548 | 4700 ft | 300 kts | 73° |
| 2026-05-06 16:20 | 53.97270 | -168.15220 | 4702 ft | 300 kts | 74° |
| 2026-05-06 16:20 | 53.97918 | -168.11858 | 4705 ft | 300 kts | 73° |
| 2026-05-06 16:21 | 53.98561 | -168.08492 | 4707 ft | 299 kts | 74° |
| 2026-05-06 16:21 | 53.99209 | -168.05131 | 4705 ft | 299 kts | 74° |
| 2026-05-06 16:21 | 53.99853 | -168.01772 | 4705 ft | 299 kts | 74° |
| 2026-05-06 16:21 | 54.00498 | -167.98421 | 4704 ft | 299 kts | 73° |
| 2026-05-06 16:22 | 54.01140 | -167.95050 | 4706 ft | 299 kts | 74° |
| 2026-05-06 16:22 | 54.01785 | -167.91692 | 4704 ft | 299 kts | 73° |
| 2026-05-06 16:22 | 54.02426 | -167.88316 | 4708 ft | 299 kts | 74° |
| 2026-05-06 16:22 | 54.03070 | -167.84949 | 4708 ft | 299 kts | 74° |
| 2026-05-06 16:23 | 54.03707 | -167.81579 | 4711 ft | 299 kts | 74° |
| 2026-05-06 16:23 | 54.04349 | -167.78210 | 4708 ft | 299 kts | 74° |
| 2026-05-06 16:23 | 54.04981 | -167.74837 | 4708 ft | 299 kts | 74° |
| 2026-05-06 16:23 | 54.05606 | -167.71498 | 4706 ft | 299 kts | 74° |
| 2026-05-06 16:24 | 54.06235 | -167.68116 | 4708 ft | 300 kts | 74° |
| 2026-05-06 16:24 | 54.06867 | -167.64734 | 4708 ft | 300 kts | 74° |
| 2026-05-06 16:24 | 54.07493 | -167.61348 | 4707 ft | 300 kts | 74° |
| 2026-05-06 16:24 | 54.08123 | -167.57960 | 4706 ft | 300 kts | 74° |
| 2026-05-06 16:25 | 54.08753 | -167.54544 | 4705 ft | 300 kts | 74° |
| 2026-05-06 16:25 | 54.09380 | -167.51159 | 4703 ft | 300 kts | 74° |
| 2026-05-06 16:25 | 54.10005 | -167.47769 | 4708 ft | 300 kts | 74° |
| 2026-05-06 16:25 | 54.10624 | -167.44426 | 4708 ft | 299 kts | 74° |
| 2026-05-06 16:26 | 54.11244 | -167.41037 | 4713 ft | 299 kts | 74° |
| 2026-05-06 16:26 | 54.11864 | -167.37655 | 4709 ft | 299 kts | 74° |
| 2026-05-06 16:26 | 54.12479 | -167.34272 | 4710 ft | 299 kts | 74° |
| 2026-05-06 16:26 | 54.13097 | -167.30897 | 4709 ft | 298 kts | 74° |
| 2026-05-06 16:27 | 54.13713 | -167.27518 | 4710 ft | 298 kts | 75° |
| 2026-05-06 16:27 | 54.14332 | -167.24146 | 4709 ft | 298 kts | 74° |
| 2026-05-06 16:27 | 54.14946 | -167.20769 | 4711 ft | 298 kts | 75° |
| 2026-05-06 16:27 | 54.15562 | -167.17393 | 4708 ft | 298 kts | 74° |
| 2026-05-06 16:28 | 54.16171 | -167.14010 | 4707 ft | 298 kts | 74° |
| 2026-05-06 16:28 | 54.16784 | -167.10614 | 4708 ft | 298 kts | 74° |
| 2026-05-06 16:28 | 54.17391 | -167.07232 | 4711 ft | 298 kts | 75° |
| 2026-05-06 16:28 | 54.18000 | -167.03852 | 4709 ft | 298 kts | 74° |
| 2026-05-06 16:29 | 54.18605 | -167.00472 | 4709 ft | 298 kts | 75° |
| 2026-05-06 16:29 | 54.19206 | -166.97134 | 4710 ft | 298 kts | 74° |
| 2026-05-06 16:29 | 54.19812 | -166.93746 | 4720 ft | 298 kts | 74° |
| 2026-05-06 16:29 | 54.20418 | -166.90370 | 4720 ft | 298 kts | 74° |
| 2026-05-06 16:30 | 54.21023 | -166.86983 | 4719 ft | 298 kts | 75° |
| 2026-05-06 16:30 | 54.21425 | -166.84741 | 4721 ft | 298 kts | 74° |
| 2026-05-06 16:30 | 54.22234 | -166.80215 | 4719 ft | 298 kts | 75° |
| 2026-05-06 16:30 | 54.22816 | -166.76819 | 4718 ft | 297 kts | 76° |
| 2026-05-06 16:31 | 54.23319 | -166.73393 | 4727 ft | 297 kts | 78° |
| 2026-05-06 16:31 | 54.23798 | -166.69952 | 4737 ft | 297 kts | 78° |
| 2026-05-06 16:31 | 54.24265 | -166.66506 | 4735 ft | 297 kts | 78° |
| 2026-05-06 16:31 | 54.24725 | -166.63062 | 4736 ft | 297 kts | 78° |
| 2026-05-06 16:32 | 54.25182 | -166.59622 | 4731 ft | 298 kts | 78° |
| 2026-05-06 16:32 | 54.25637 | -166.56162 | 4730 ft | 298 kts | 78° |
| 2026-05-06 16:32 | 54.26090 | -166.52704 | 4728 ft | 298 kts | 78° |
| 2026-05-06 16:32 | 54.26533 | -166.49286 | 4732 ft | 298 kts | 79° |
| 2026-05-06 16:33 | 54.26983 | -166.45825 | 4731 ft | 298 kts | 78° |
| 2026-05-06 16:33 | 54.27430 | -166.42354 | 4731 ft | 298 kts | 79° |
| 2026-05-06 16:33 | 54.27994 | -166.38946 | 4726 ft | 299 kts | 69° |
| 2026-05-06 16:34 | 54.29942 | -166.32646 | 4727 ft | 300 kts | 60° |
| 2026-05-06 16:34 | 54.31196 | -166.29789 | 4725 ft | 301 kts | 50° |
| 2026-05-06 16:34 | 54.32706 | -166.27289 | 4725 ft | 303 kts | 41° |
| 2026-05-06 16:34 | 54.34354 | -166.25040 | 4729 ft | 303 kts | 41° |
| 2026-05-06 16:35 | 54.35905 | -166.22609 | 4720 ft | 302 kts | 46° |
| 2026-05-06 16:35 | 54.37368 | -166.20030 | 4721 ft | 302 kts | 49° |
| 2026-05-06 16:35 | 54.38755 | -166.17333 | 4720 ft | 301 kts | 51° |
| 2026-05-06 16:35 | 54.40101 | -166.14577 | 4721 ft | 301 kts | 52° |
| 2026-05-06 16:36 | 54.41434 | -166.11793 | 4721 ft | 301 kts | 52° |
| 2026-05-06 16:36 | 54.42758 | -166.09005 | 4721 ft | 302 kts | 52° |
| 2026-05-06 16:36 | 54.44064 | -166.06237 | 4721 ft | 302 kts | 52° |
| 2026-05-06 16:36 | 54.45384 | -166.03434 | 4722 ft | 302 kts | 53° |
| 2026-05-06 16:37 | 54.46703 | -166.00632 | 4718 ft | 301 kts | 53° |
| 2026-05-06 16:37 | 54.48024 | -165.97830 | 4717 ft | 301 kts | 53° |
| 2026-05-06 16:37 | 54.49341 | -165.95034 | 4718 ft | 301 kts | 52° |
| 2026-05-06 16:37 | 54.50658 | -165.92228 | 4710 ft | 301 kts | 52° |
| 2026-05-06 16:38 | 54.51973 | -165.89426 | 4710 ft | 301 kts | 53° |
| 2026-05-06 16:38 | 54.53290 | -165.86613 | 4710 ft | 302 kts | 53° |
| 2026-05-06 16:38 | 54.54603 | -165.83800 | 4713 ft | 302 kts | 53° |
| 2026-05-06 16:38 | 54.55920 | -165.80975 | 4716 ft | 302 kts | 53° |
| 2026-05-06 16:39 | 54.57235 | -165.78155 | 4714 ft | 302 kts | 53° |
| 2026-05-06 16:39 | 54.58552 | -165.75331 | 4714 ft | 302 kts | 53° |
| 2026-05-06 16:39 | 54.59868 | -165.72502 | 4714 ft | 302 kts | 53° |
| 2026-05-06 16:39 | 54.61185 | -165.69672 | 4714 ft | 302 kts | 53° |
| 2026-05-06 16:40 | 54.62501 | -165.66839 | 4721 ft | 302 kts | 53° |
| 2026-05-06 16:40 | 54.63817 | -165.64002 | 4722 ft | 302 kts | 53° |
| 2026-05-06 16:40 | 54.65115 | -165.61210 | 4722 ft | 302 kts | 53° |
| 2026-05-06 16:40 | 54.66430 | -165.58374 | 4720 ft | 302 kts | 53° |
| 2026-05-06 16:41 | 54.67747 | -165.55521 | 4719 ft | 302 kts | 53° |
| 2026-05-06 16:41 | 54.69055 | -165.52680 | 4718 ft | 302 kts | 53° |
| 2026-05-06 16:41 | 54.70365 | -165.49836 | 4718 ft | 302 kts | 53° |
| 2026-05-06 16:41 | 54.71674 | -165.46987 | 4721 ft | 302 kts | 53° |
| 2026-05-06 16:42 | 54.72983 | -165.44133 | 4723 ft | 302 kts | 53° |
| 2026-05-06 16:42 | 54.74291 | -165.41282 | 4721 ft | 302 kts | 53° |
| 2026-05-06 16:42 | 54.75598 | -165.38430 | 4721 ft | 302 kts | 53° |
| 2026-05-06 16:42 | 54.76903 | -165.35578 | 4721 ft | 302 kts | 53° |
| 2026-05-06 16:43 | 54.78209 | -165.32725 | 4721 ft | 302 kts | 53° |
| 2026-05-06 16:43 | 54.79516 | -165.29865 | 4725 ft | 302 kts | 53° |
| 2026-05-06 16:43 | 54.80818 | -165.27010 | 4725 ft | 302 kts | 53° |
| 2026-05-06 16:43 | 54.82108 | -165.24185 | 4726 ft | 302 kts | 53° |
| 2026-05-06 16:44 | 54.83415 | -165.21322 | 4724 ft | 302 kts | 53° |
| 2026-05-06 16:44 | 54.84717 | -165.18459 | 4723 ft | 302 kts | 53° |
| 2026-05-06 16:44 | 54.86014 | -165.15587 | 4723 ft | 303 kts | 53° |
| 2026-05-06 16:44 | 54.87309 | -165.12703 | 4724 ft | 303 kts | 53° |
| 2026-05-06 16:45 | 54.88599 | -165.09807 | 4723 ft | 303 kts | 53° |
| 2026-05-06 16:45 | 54.89885 | -165.06902 | 4726 ft | 303 kts | 53° |
| 2026-05-06 16:45 | 54.91167 | -165.04000 | 4725 ft | 303 kts | 53° |
| 2026-05-06 16:45 | 54.92448 | -165.01094 | 4725 ft | 303 kts | 53° |
| 2026-05-06 16:46 | 54.93730 | -164.98183 | 4726 ft | 303 kts | 53° |
| 2026-05-06 16:46 | 54.95012 | -164.95270 | 4727 ft | 303 kts | 53° |
| 2026-05-06 16:46 | 54.96295 | -164.92352 | 4733 ft | 303 kts | 53° |
| 2026-05-06 16:46 | 54.97557 | -164.89475 | 4734 ft | 303 kts | 53° |
| 2026-05-06 16:47 | 54.98838 | -164.86557 | 4734 ft | 303 kts | 53° |
| 2026-05-06 16:47 | 55.00117 | -164.83641 | 4731 ft | 303 kts | 53° |
| 2026-05-06 16:47 | 55.01395 | -164.80723 | 4732 ft | 303 kts | 53° |
| 2026-05-06 16:47 | 55.02674 | -164.77800 | 4732 ft | 303 kts | 53° |
| 2026-05-06 16:48 | 55.03955 | -164.74874 | 4734 ft | 303 kts | 53° |
| 2026-05-06 16:48 | 55.05231 | -164.71954 | 4736 ft | 303 kts | 53° |
| 2026-05-06 16:48 | 55.06509 | -164.69028 | 4735 ft | 303 kts | 53° |
| 2026-05-06 16:48 | 55.07787 | -164.66101 | 4734 ft | 303 kts | 53° |
| 2026-05-06 16:49 | 55.09058 | -164.63166 | 4733 ft | 303 kts | 53° |
| 2026-05-06 16:49 | 55.10308 | -164.60256 | 4734 ft | 304 kts | 53° |
| 2026-05-06 16:49 | 55.11577 | -164.57295 | 4734 ft | 304 kts | 53° |
| 2026-05-06 16:49 | 55.12842 | -164.54331 | 4734 ft | 304 kts | 53° |
| 2026-05-06 16:50 | 55.14109 | -164.51365 | 4734 ft | 304 kts | 53° |
| 2026-05-06 16:50 | 55.15372 | -164.48399 | 4735 ft | 304 kts | 53° |
| 2026-05-06 16:50 | 55.16638 | -164.45427 | 4736 ft | 305 kts | 53° |
| 2026-05-06 16:50 | 55.17476 | -164.43456 | 4735 ft | 305 kts | 53° |
| 2026-05-06 16:51 | 55.19164 | -164.39475 | 4734 ft | 305 kts | 53° |
| 2026-05-06 16:51 | 55.20425 | -164.36490 | 4742 ft | 305 kts | 53° |
| 2026-05-06 16:51 | 55.21686 | -164.33498 | 4743 ft | 305 kts | 53° |
| 2026-05-06 16:51 | 55.22945 | -164.30507 | 4743 ft | 305 kts | 53° |
| 2026-05-06 16:52 | 55.24206 | -164.27512 | 4745 ft | 305 kts | 53° |
| 2026-05-06 16:52 | 55.25464 | -164.24516 | 4743 ft | 305 kts | 53° |
| 2026-05-06 16:52 | 55.26725 | -164.21515 | 4744 ft | 305 kts | 53° |
| 2026-05-06 16:52 | 55.27982 | -164.18517 | 4743 ft | 305 kts | 53° |
| 2026-05-06 16:53 | 55.29244 | -164.15511 | 4750 ft | 306 kts | 53° |
| 2026-05-06 16:53 | 55.30502 | -164.12487 | 4749 ft | 307 kts | 53° |
| 2026-05-06 16:53 | 55.31749 | -164.09488 | 4750 ft | 308 kts | 53° |
| 2026-05-06 16:53 | 55.33008 | -164.06447 | 4751 ft | 308 kts | 54° |
| 2026-05-06 16:54 | 55.34271 | -164.03400 | 4750 ft | 309 kts | 53° |
| 2026-05-06 16:54 | 55.35535 | -164.00341 | 4749 ft | 309 kts | 54° |
| 2026-05-06 16:54 | 55.36798 | -163.97288 | 4749 ft | 309 kts | 53° |
| 2026-05-06 16:54 | 55.38063 | -163.94225 | 4750 ft | 309 kts | 54° |
| 2026-05-06 16:55 | 55.39327 | -163.91163 | 4753 ft | 309 kts | 53° |
| 2026-05-06 16:55 | 55.40590 | -163.88100 | 4754 ft | 309 kts | 54° |
| 2026-05-06 16:55 | 55.41854 | -163.85034 | 4753 ft | 309 kts | 53° |
| 2026-05-06 16:55 | 55.43116 | -163.81967 | 4753 ft | 309 kts | 54° |
| 2026-05-06 16:56 | 55.44381 | -163.78896 | 4752 ft | 309 kts | 54° |
| 2026-05-06 16:56 | 55.45643 | -163.75825 | 4750 ft | 309 kts | 54° |
| 2026-05-06 16:56 | 55.46906 | -163.72752 | 4750 ft | 309 kts | 54° |
| 2026-05-06 16:56 | 55.48166 | -163.69683 | 4750 ft | 309 kts | 54° |
| 2026-05-06 16:57 | 55.49429 | -163.66605 | 4752 ft | 309 kts | 54° |
| 2026-05-06 16:57 | 55.50691 | -163.63525 | 4750 ft | 309 kts | 54° |
| 2026-05-06 16:57 | 55.51953 | -163.60447 | 4750 ft | 309 kts | 54° |
| 2026-05-06 16:57 | 55.53212 | -163.57367 | 4753 ft | 310 kts | 54° |
| 2026-05-06 16:58 | 55.54457 | -163.54323 | 4753 ft | 310 kts | 54° |
| 2026-05-06 16:58 | 55.55718 | -163.51235 | 4753 ft | 310 kts | 54° |
| 2026-05-06 16:58 | 55.56979 | -163.48146 | 4754 ft | 310 kts | 54° |
| 2026-05-06 16:58 | 55.58238 | -163.45057 | 4752 ft | 310 kts | 54° |
| 2026-05-06 16:59 | 55.59497 | -163.41969 | 4755 ft | 310 kts | 54° |
| 2026-05-06 16:59 | 55.60757 | -163.38874 | 4753 ft | 310 kts | 54° |
| 2026-05-06 16:59 | 55.62016 | -163.35781 | 4753 ft | 310 kts | 54° |
| 2026-05-06 16:59 | 55.63272 | -163.32690 | 4753 ft | 310 kts | 54° |
| 2026-05-06 17:00 | 55.64530 | -163.29598 | 4752 ft | 310 kts | 54° |
| 2026-05-06 17:00 | 55.65787 | -163.26499 | 4752 ft | 310 kts | 54° |
| 2026-05-06 17:00 | 55.67045 | -163.23402 | 4752 ft | 310 kts | 54° |
| 2026-05-06 17:00 | 55.68304 | -163.20295 | 4752 ft | 310 kts | 54° |
| 2026-05-06 17:01 | 55.69561 | -163.17196 | 4755 ft | 310 kts | 54° |
| 2026-05-06 17:01 | 55.70797 | -163.14129 | 4757 ft | 310 kts | 54° |
| 2026-05-06 17:01 | 55.72052 | -163.11018 | 4758 ft | 310 kts | 54° |
| 2026-05-06 17:01 | 55.73305 | -163.07899 | 4757 ft | 310 kts | 54° |
| 2026-05-06 17:02 | 55.74560 | -163.04781 | 4753 ft | 310 kts | 54° |
| 2026-05-06 17:02 | 55.75812 | -163.01659 | 4753 ft | 310 kts | 54° |
| 2026-05-06 17:02 | 55.77066 | -162.98536 | 4753 ft | 310 kts | 54° |
| 2026-05-06 17:02 | 55.78316 | -162.95414 | 4753 ft | 310 kts | 54° |
| 2026-05-06 17:03 | 55.79567 | -162.92294 | 4757 ft | 310 kts | 54° |
| 2026-05-06 17:03 | 55.80818 | -162.89166 | 4756 ft | 310 kts | 54° |
| 2026-05-06 17:03 | 55.82070 | -162.86039 | 4763 ft | 310 kts | 54° |
| 2026-05-06 17:03 | 55.83324 | -162.82905 | 4758 ft | 310 kts | 54° |
| 2026-05-06 17:04 | 55.84155 | -162.80834 | 4753 ft | 310 kts | 54° |
| 2026-05-06 17:04 | 55.85410 | -162.77707 | 4754 ft | 310 kts | 54° |
| 2026-05-06 17:04 | 55.86664 | -162.74582 | 4756 ft | 310 kts | 54° |
| 2026-05-06 17:04 | 55.87917 | -162.71458 | 4754 ft | 310 kts | 54° |
| 2026-05-06 17:05 | 55.89172 | -162.68323 | 4761 ft | 310 kts | 54° |
| 2026-05-06 17:05 | 55.90425 | -162.65189 | 4760 ft | 310 kts | 54° |
| 2026-05-06 17:05 | 55.91674 | -162.62055 | 4761 ft | 310 kts | 54° |
| 2026-05-06 17:05 | 55.92929 | -162.58904 | 4761 ft | 311 kts | 54° |
| 2026-05-06 17:06 | 55.94179 | -162.55760 | 4762 ft | 311 kts | 54° |
| 2026-05-06 17:06 | 55.95429 | -162.52614 | 4760 ft | 311 kts | 54° |
| 2026-05-06 17:06 | 55.96678 | -162.49470 | 4760 ft | 311 kts | 54° |
| 2026-05-06 17:06 | 55.97927 | -162.46320 | 4760 ft | 311 kts | 54° |
| 2026-05-06 17:07 | 55.99177 | -162.43167 | 4761 ft | 311 kts | 54° |
| 2026-05-06 17:07 | 56.00410 | -162.40056 | 4760 ft | 311 kts | 54° |
| 2026-05-06 17:07 | 56.01658 | -162.36902 | 4760 ft | 311 kts | 54° |
| 2026-05-06 17:07 | 56.02908 | -162.33744 | 4760 ft | 311 kts | 54° |
| 2026-05-06 17:08 | 56.04157 | -162.30582 | 4762 ft | 311 kts | 54° |
| 2026-05-06 17:08 | 56.05406 | -162.27422 | 4760 ft | 311 kts | 54° |
| 2026-05-06 17:08 | 56.06653 | -162.24259 | 4760 ft | 311 kts | 54° |
| 2026-05-06 17:08 | 56.07902 | -162.21093 | 4759 ft | 311 kts | 54° |
| 2026-05-06 17:09 | 56.09151 | -162.17919 | 4762 ft | 311 kts | 54° |
| 2026-05-06 17:09 | 56.10397 | -162.14750 | 4760 ft | 311 kts | 54° |
| 2026-05-06 17:09 | 56.11641 | -162.11570 | 4760 ft | 311 kts | 54° |
| 2026-05-06 17:09 | 56.12884 | -162.08388 | 4761 ft | 312 kts | 54° |
| 2026-05-06 17:10 | 56.14128 | -162.05202 | 4760 ft | 312 kts | 54° |
| 2026-05-06 17:10 | 56.15369 | -162.02019 | 4760 ft | 312 kts | 54° |
| 2026-05-06 17:10 | 56.16594 | -161.98873 | 4762 ft | 312 kts | 54° |
| 2026-05-06 17:10 | 56.17838 | -161.95680 | 4760 ft | 312 kts | 54° |
| 2026-05-06 17:11 | 56.19081 | -161.92483 | 4760 ft | 312 kts | 54° |
| 2026-05-06 17:11 | 56.20326 | -161.89284 | 4763 ft | 312 kts | 54° |
| 2026-05-06 17:11 | 56.21566 | -161.86087 | 4764 ft | 312 kts | 54° |
| 2026-05-06 17:11 | 56.22810 | -161.82884 | 4763 ft | 312 kts | 54° |
| 2026-05-06 17:12 | 56.24049 | -161.79686 | 4763 ft | 312 kts | 54° |
| 2026-05-06 17:12 | 56.25291 | -161.76483 | 4765 ft | 312 kts | 54° |
| 2026-05-06 17:12 | 56.26527 | -161.73284 | 4763 ft | 312 kts | 54° |
| 2026-05-06 17:12 | 56.27769 | -161.70075 | 4764 ft | 312 kts | 54° |
| 2026-05-06 17:13 | 56.29006 | -161.66869 | 4768 ft | 312 kts | 54° |
| 2026-05-06 17:13 | 56.30243 | -161.63658 | 4768 ft | 312 kts | 54° |
| 2026-05-06 17:13 | 56.31475 | -161.60441 | 4767 ft | 312 kts | 54° |
| 2026-05-06 17:13 | 56.32705 | -161.57225 | 4768 ft | 312 kts | 54° |
| 2026-05-06 17:14 | 56.33923 | -161.54035 | 4769 ft | 312 kts | 54° |
| 2026-05-06 17:14 | 56.35157 | -161.50800 | 4772 ft | 312 kts | 54° |
| 2026-05-06 17:14 | 56.36387 | -161.47573 | 4770 ft | 312 kts | 54° |
| 2026-05-06 17:14 | 56.37618 | -161.44343 | 4769 ft | 312 kts | 55° |
| 2026-05-06 17:15 | 56.38844 | -161.41120 | 4770 ft | 312 kts | 54° |
| 2026-05-06 17:15 | 56.40076 | -161.37881 | 4770 ft | 312 kts | 55° |
| 2026-05-06 17:15 | 56.41304 | -161.34647 | 4768 ft | 312 kts | 54° |
| 2026-05-06 17:15 | 56.42531 | -161.31415 | 4767 ft | 312 kts | 55° |
| 2026-05-06 17:16 | 56.43757 | -161.28179 | 4767 ft | 312 kts | 54° |
| 2026-05-06 17:16 | 56.44970 | -161.24981 | 4767 ft | 312 kts | 55° |
| 2026-05-06 17:16 | 56.46196 | -161.21743 | 4766 ft | 312 kts | 55° |
| 2026-05-06 17:16 | 56.47426 | -161.18505 | 4764 ft | 312 kts | 55° |
| 2026-05-06 17:17 | 56.48654 | -161.15273 | 4764 ft | 312 kts | 55° |
| 2026-05-06 17:17 | 56.49882 | -161.12040 | 4770 ft | 312 kts | 55° |
| 2026-05-06 17:17 | 56.51105 | -161.08797 | 4770 ft | 312 kts | 55° |
| 2026-05-06 17:17 | 56.52327 | -161.05560 | 4769 ft | 312 kts | 55° |
| 2026-05-06 17:18 | 56.53548 | -161.02312 | 4769 ft | 312 kts | 55° |
| 2026-05-06 17:18 | 56.54770 | -160.99065 | 4768 ft | 312 kts | 55° |
| 2026-05-06 17:18 | 56.55990 | -160.95812 | 4770 ft | 312 kts | 55° |
| 2026-05-06 17:18 | 56.57209 | -160.92566 | 4763 ft | 312 kts | 55° |
| 2026-05-06 17:19 | 56.58427 | -160.89311 | 4763 ft | 312 kts | 55° |
| 2026-05-06 17:19 | 56.59645 | -160.86062 | 4765 ft | 312 kts | 55° |
| 2026-05-06 17:19 | 56.60863 | -160.82802 | 4763 ft | 312 kts | 55° |
| 2026-05-06 17:19 | 56.62082 | -160.79545 | 4763 ft | 312 kts | 55° |
| 2026-05-06 17:20 | 56.63297 | -160.76289 | 4763 ft | 312 kts | 55° |
| 2026-05-06 17:20 | 56.64517 | -160.73028 | 4763 ft | 312 kts | 55° |
| 2026-05-06 17:20 | 56.65733 | -160.69768 | 4765 ft | 312 kts | 55° |
| 2026-05-06 17:20 | 56.66951 | -160.66507 | 4763 ft | 312 kts | 55° |
| 2026-05-06 17:21 | 56.68150 | -160.63286 | 4763 ft | 312 kts | 55° |
| 2026-05-06 17:21 | 56.69370 | -160.60014 | 4770 ft | 312 kts | 55° |
| 2026-05-06 17:21 | 56.70579 | -160.56743 | 4770 ft | 312 kts | 55° |
| 2026-05-06 17:21 | 56.71789 | -160.53472 | 4770 ft | 312 kts | 55° |
| 2026-05-06 17:22 | 56.73000 | -160.50187 | 4767 ft | 312 kts | 55° |
| 2026-05-06 17:22 | 56.74214 | -160.46897 | 4769 ft | 312 kts | 55° |
| 2026-05-06 17:22 | 56.75420 | -160.43618 | 4767 ft | 312 kts | 55° |
| 2026-05-06 17:22 | 56.76627 | -160.40340 | 4767 ft | 312 kts | 55° |
| 2026-05-06 17:23 | 56.77835 | -160.37050 | 4764 ft | 312 kts | 55° |
| 2026-05-06 17:23 | 56.79045 | -160.33763 | 4764 ft | 312 kts | 55° |
| 2026-05-06 17:23 | 56.80251 | -160.30475 | 4764 ft | 312 kts | 55° |
| 2026-05-06 17:23 | 56.81458 | -160.27191 | 4761 ft | 312 kts | 55° |
| 2026-05-06 17:24 | 56.82665 | -160.23899 | 4761 ft | 312 kts | 55° |
| 2026-05-06 17:24 | 56.83872 | -160.20608 | 4761 ft | 312 kts | 55° |
| 2026-05-06 17:24 | 56.85079 | -160.17310 | 4761 ft | 312 kts | 55° |
| 2026-05-06 17:24 | 56.86270 | -160.14059 | 4761 ft | 312 kts | 55° |
| 2026-05-06 17:25 | 56.87475 | -160.10760 | 4763 ft | 312 kts | 55° |
| 2026-05-06 17:25 | 56.88682 | -160.07462 | 4770 ft | 312 kts | 55° |
| 2026-05-06 17:25 | 56.89882 | -160.04154 | 4768 ft | 312 kts | 55° |
| 2026-05-06 17:25 | 56.91079 | -160.00839 | 4768 ft | 312 kts | 55° |
| 2026-05-06 17:26 | 56.92278 | -159.97511 | 4768 ft | 313 kts | 55° |
| 2026-05-06 17:26 | 56.93473 | -159.94190 | 4768 ft | 312 kts | 55° |
| 2026-05-06 17:26 | 56.94669 | -159.90859 | 4768 ft | 313 kts | 55° |
| 2026-05-06 17:26 | 56.95862 | -159.87535 | 4768 ft | 313 kts | 55° |
| 2026-05-06 17:27 | 56.97056 | -159.84202 | 4763 ft | 313 kts | 55° |
| 2026-05-06 17:27 | 56.98250 | -159.80867 | 4763 ft | 313 kts | 55° |
| 2026-05-06 17:27 | 56.99442 | -159.77536 | 4764 ft | 313 kts | 56° |
| 2026-05-06 17:27 | 57.00636 | -159.74197 | 4764 ft | 313 kts | 55° |
| 2026-05-06 17:28 | 57.01829 | -159.70856 | 4765 ft | 313 kts | 55° |
| 2026-05-06 17:28 | 57.03024 | -159.67509 | 4763 ft | 313 kts | 56° |
| 2026-05-06 17:28 | 57.04218 | -159.64165 | 4757 ft | 313 kts | 55° |
| 2026-05-06 17:28 | 57.05410 | -159.60822 | 4757 ft | 313 kts | 56° |
| 2026-05-06 17:29 | 57.06587 | -159.57519 | 4758 ft | 313 kts | 56° |
| 2026-05-06 17:29 | 57.07780 | -159.54168 | 4768 ft | 313 kts | 55° |
| 2026-05-06 17:29 | 57.08969 | -159.50818 | 4770 ft | 313 kts | 55° |
| 2026-05-06 17:29 | 57.10156 | -159.47460 | 4767 ft | 313 kts | 56° |
| 2026-05-06 17:30 | 57.11347 | -159.44094 | 4771 ft | 313 kts | 55° |
| 2026-05-06 17:30 | 57.12531 | -159.40728 | 4764 ft | 313 kts | 56° |
| 2026-05-06 17:30 | 57.13717 | -159.37361 | 4764 ft | 313 kts | 56° |
| 2026-05-06 17:30 | 57.14904 | -159.33992 | 4766 ft | 314 kts | 55° |
| 2026-05-06 17:31 | 57.16090 | -159.30617 | 4765 ft | 314 kts | 56° |
| 2026-05-06 17:31 | 57.17275 | -159.27243 | 4765 ft | 314 kts | 56° |
| 2026-05-06 17:31 | 57.18461 | -159.23870 | 4767 ft | 314 kts | 56° |
| 2026-05-06 17:31 | 57.19631 | -159.20534 | 4762 ft | 314 kts | 56° |
| 2026-05-06 17:32 | 57.20816 | -159.17157 | 4762 ft | 314 kts | 56° |
| 2026-05-06 17:32 | 57.22002 | -159.13781 | 4763 ft | 314 kts | 56° |
| 2026-05-06 17:32 | 57.23188 | -159.10395 | 4762 ft | 314 kts | 56° |
| 2026-05-06 17:32 | 57.24372 | -159.07009 | 4762 ft | 314 kts | 56° |
| 2026-05-06 17:33 | 57.25557 | -159.03621 | 4763 ft | 314 kts | 56° |
| 2026-05-06 17:33 | 57.26740 | -159.00234 | 4762 ft | 314 kts | 56° |
| 2026-05-06 17:33 | 57.27923 | -158.96847 | 4769 ft | 314 kts | 56° |
| 2026-05-06 17:33 | 57.29107 | -158.93450 | 4769 ft | 314 kts | 56° |
| 2026-05-06 17:34 | 57.30287 | -158.90053 | 4770 ft | 314 kts | 56° |
| 2026-05-06 17:34 | 57.31467 | -158.86654 | 4770 ft | 314 kts | 56° |
| 2026-05-06 17:34 | 57.32645 | -158.83258 | 4769 ft | 314 kts | 56° |
| 2026-05-06 17:34 | 57.33821 | -158.79860 | 4771 ft | 314 kts | 56° |
| 2026-05-06 17:35 | 57.35000 | -158.76452 | 4775 ft | 314 kts | 56° |
| 2026-05-06 17:35 | 57.36178 | -158.73051 | 4772 ft | 314 kts | 56° |
| 2026-05-06 17:35 | 57.37354 | -158.69651 | 4772 ft | 314 kts | 56° |
| 2026-05-06 17:36 | 57.39709 | -158.62839 | 4775 ft | 314 kts | 56° |
| 2026-05-06 17:36 | 57.40886 | -158.59427 | 4771 ft | 314 kts | 56° |
| 2026-05-06 17:36 | 57.42046 | -158.56054 | 4769 ft | 314 kts | 56° |
| 2026-05-06 17:36 | 57.43214 | -158.52641 | 4763 ft | 314 kts | 56° |
| 2026-05-06 17:37 | 57.44383 | -158.49216 | 4764 ft | 314 kts | 56° |
| 2026-05-06 17:37 | 57.45548 | -158.45787 | 4763 ft | 314 kts | 56° |
| 2026-05-06 17:37 | 57.46715 | -158.42357 | 4763 ft | 314 kts | 56° |
| 2026-05-06 17:37 | 57.47881 | -158.38923 | 4761 ft | 314 kts | 56° |
| 2026-05-06 17:38 | 57.49049 | -158.35486 | 4764 ft | 314 kts | 56° |
| 2026-05-06 17:38 | 57.50213 | -158.32058 | 4758 ft | 314 kts | 56° |
| 2026-05-06 17:38 | 57.51379 | -158.28616 | 4759 ft | 314 kts | 56° |
| 2026-05-06 17:38 | 57.52544 | -158.25182 | 4759 ft | 314 kts | 56° |
| 2026-05-06 17:39 | 57.53711 | -158.21751 | 4756 ft | 314 kts | 56° |
| 2026-05-06 17:39 | 57.54876 | -158.18311 | 4757 ft | 314 kts | 56° |
| 2026-05-06 17:39 | 57.56039 | -158.14872 | 4759 ft | 314 kts | 56° |
| 2026-05-06 17:39 | 57.57203 | -158.11436 | 4760 ft | 314 kts | 56° |
| 2026-05-06 17:40 | 57.58366 | -158.07992 | 4756 ft | 314 kts | 56° |
| 2026-05-06 17:40 | 57.59527 | -158.04554 | 4755 ft | 314 kts | 56° |
| 2026-05-06 17:40 | 57.60675 | -158.01156 | 4759 ft | 314 kts | 56° |
| 2026-05-06 17:40 | 57.61835 | -157.97707 | 4759 ft | 314 kts | 56° |
| 2026-05-06 17:41 | 57.62994 | -157.94256 | 4758 ft | 314 kts | 56° |
| 2026-05-06 17:41 | 57.64154 | -157.90810 | 4762 ft | 314 kts | 56° |
| 2026-05-06 17:41 | 57.65313 | -157.87354 | 4761 ft | 314 kts | 56° |
| 2026-05-06 17:41 | 57.66469 | -157.83899 | 4755 ft | 314 kts | 56° |
| 2026-05-06 17:42 | 57.67623 | -157.80433 | 4751 ft | 314 kts | 56° |
| 2026-05-06 17:42 | 57.68774 | -157.76965 | 4752 ft | 314 kts | 56° |
| 2026-05-06 17:42 | 57.69924 | -157.73499 | 4752 ft | 314 kts | 56° |
| 2026-05-06 17:42 | 57.71074 | -157.70027 | 4752 ft | 314 kts | 56° |
| 2026-05-06 17:43 | 57.72223 | -157.66552 | 4754 ft | 314 kts | 56° |
| 2026-05-06 17:43 | 57.73373 | -157.63082 | 4757 ft | 314 kts | 56° |
| 2026-05-06 17:43 | 57.74522 | -157.59614 | 4758 ft | 313 kts | 56° |
| 2026-05-06 17:43 | 57.75669 | -157.56143 | 4755 ft | 313 kts | 56° |
| 2026-05-06 17:44 | 57.76804 | -157.52714 | 4758 ft | 313 kts | 56° |
| 2026-05-06 17:44 | 57.77949 | -157.49253 | 4761 ft | 313 kts | 56° |
| 2026-05-06 17:44 | 57.79093 | -157.45784 | 4758 ft | 313 kts | 57° |
| 2026-05-06 17:44 | 57.80238 | -157.42317 | 4759 ft | 313 kts | 56° |
| 2026-05-06 17:45 | 57.81383 | -157.38850 | 4749 ft | 313 kts | 56° |
| 2026-05-06 17:45 | 57.82527 | -157.35376 | 4750 ft | 312 kts | 57° |
| 2026-05-06 17:45 | 57.83670 | -157.31903 | 4749 ft | 313 kts | 56° |
| 2026-05-06 17:45 | 57.84814 | -157.28428 | 4759 ft | 312 kts | 57° |
| 2026-05-06 17:46 | 57.85972 | -157.24969 | 4762 ft | 312 kts | 57° |
| 2026-05-06 17:46 | 57.87134 | -157.21518 | 4761 ft | 313 kts | 57° |
| 2026-05-06 17:46 | 57.88296 | -157.18071 | 4754 ft | 312 kts | 56° |
| 2026-05-06 17:46 | 57.89446 | -157.14658 | 4754 ft | 313 kts | 57° |
| 2026-05-06 17:47 | 57.90610 | -157.11206 | 4754 ft | 313 kts | 56° |
| 2026-05-06 17:47 | 57.91776 | -157.07744 | 4754 ft | 312 kts | 56° |
| 2026-05-06 17:47 | 57.92938 | -157.04287 | 4757 ft | 313 kts | 57° |
| 2026-05-06 17:47 | 57.94104 | -157.00822 | 4755 ft | 313 kts | 57° |
| 2026-05-06 17:48 | 57.95266 | -156.97359 | 4757 ft | 313 kts | 56° |
| 2026-05-06 17:48 | 57.96429 | -156.93896 | 4754 ft | 312 kts | 57° |
| 2026-05-06 17:48 | 57.97595 | -156.90434 | 4755 ft | 313 kts | 57° |
| 2026-05-06 17:48 | 57.98758 | -156.86973 | 4754 ft | 312 kts | 57° |
| 2026-05-06 17:49 | 57.99904 | -156.83557 | 4755 ft | 312 kts | 57° |
| 2026-05-06 17:49 | 58.01063 | -156.80099 | 4753 ft | 312 kts | 57° |
| 2026-05-06 17:49 | 58.02221 | -156.76636 | 4757 ft | 312 kts | 57° |
| 2026-05-06 17:49 | 58.03385 | -156.73155 | 4753 ft | 312 kts | 57° |
| 2026-05-06 17:50 | 58.04551 | -156.69703 | 4753 ft | 311 kts | 56° |
| 2026-05-06 17:50 | 58.05702 | -156.66245 | 4754 ft | 311 kts | 57° |
| 2026-05-06 17:50 | 58.06839 | -156.62783 | 4754 ft | 310 kts | 57° |
| 2026-05-06 17:50 | 58.07592 | -156.60485 | 4754 ft | 309 kts | 56° |
| 2026-05-06 17:51 | 58.08720 | -156.57027 | 4753 ft | 309 kts | 57° |
| 2026-05-06 17:51 | 58.09846 | -156.53574 | 4752 ft | 309 kts | 57° |
| 2026-05-06 17:51 | 58.10968 | -156.50117 | 4758 ft | 308 kts | 57° |
| 2026-05-06 17:51 | 58.12090 | -156.46660 | 4758 ft | 308 kts | 57° |
| 2026-05-06 17:52 | 58.13213 | -156.43207 | 4762 ft | 308 kts | 57° |
| 2026-05-06 17:52 | 58.14334 | -156.39747 | 4762 ft | 308 kts | 57° |
| 2026-05-06 17:52 | 58.15455 | -156.36287 | 4765 ft | 308 kts | 57° |
| 2026-05-06 17:52 | 58.16576 | -156.32830 | 4764 ft | 308 kts | 56° |
| 2026-05-06 17:53 | 58.17699 | -156.29362 | 4760 ft | 308 kts | 57° |
| 2026-05-06 17:53 | 58.18820 | -156.25902 | 4752 ft | 308 kts | 57° |
| 2026-05-06 17:53 | 58.19941 | -156.22438 | 4752 ft | 308 kts | 57° |
| 2026-05-06 17:53 | 58.21059 | -156.18966 | 4753 ft | 308 kts | 57° |
| 2026-05-06 17:54 | 58.22164 | -156.15543 | 4761 ft | 309 kts | 57° |
| 2026-05-06 17:54 | 58.23287 | -156.12075 | 4760 ft | 309 kts | 57° |
| 2026-05-06 17:54 | 58.24415 | -156.08596 | 4759 ft | 309 kts | 57° |
| 2026-05-06 17:54 | 58.25544 | -156.05117 | 4758 ft | 309 kts | 57° |
| 2026-05-06 17:55 | 58.26672 | -156.01640 | 4754 ft | 309 kts | 57° |
| 2026-05-06 17:55 | 58.27800 | -155.98154 | 4753 ft | 309 kts | 57° |
| 2026-05-06 17:55 | 58.28930 | -155.94669 | 4756 ft | 310 kts | 57° |
| 2026-05-06 17:55 | 58.30058 | -155.91184 | 4754 ft | 310 kts | 57° |
| 2026-05-06 17:56 | 58.31190 | -155.87689 | 4755 ft | 310 kts | 57° |
| 2026-05-06 17:56 | 58.32320 | -155.84201 | 4754 ft | 310 kts | 57° |
| 2026-05-06 17:56 | 58.33450 | -155.80701 | 4751 ft | 310 kts | 57° |
| 2026-05-06 17:56 | 58.34582 | -155.77189 | 4747 ft | 311 kts | 57° |
| 2026-05-06 17:57 | 58.35711 | -155.73701 | 4743 ft | 308 kts | 57° |
| 2026-05-06 17:57 | 58.36831 | -155.70233 | 4739 ft | 306 kts | 56° |
| 2026-05-06 17:57 | 58.37926 | -155.66765 | 4741 ft | 305 kts | 57° |
| 2026-05-06 17:57 | 58.39018 | -155.63298 | 4739 ft | 305 kts | 57° |
| 2026-05-06 17:58 | 58.40085 | -155.59874 | 4740 ft | 304 kts | 57° |
| 2026-05-06 17:58 | 58.41160 | -155.56404 | 4737 ft | 304 kts | 57° |
| 2026-05-06 17:58 | 58.42246 | -155.52926 | 4735 ft | 306 kts | 57° |
| 2026-05-06 17:58 | 58.43355 | -155.49390 | 4736 ft | 307 kts | 57° |
| 2026-05-06 17:59 | 58.44442 | -155.45945 | 4736 ft | 307 kts | 57° |
| 2026-05-06 17:59 | 58.45541 | -155.42456 | 4732 ft | 305 kts | 57° |
| 2026-05-06 17:59 | 58.46634 | -155.38980 | 4732 ft | 304 kts | 57° |
| 2026-05-06 17:59 | 58.47724 | -155.35505 | 4734 ft | 306 kts | 57° |
| 2026-05-06 18:00 | 58.48819 | -155.31998 | 4729 ft | 307 kts | 57° |
| 2026-05-06 18:00 | 58.49921 | -155.28483 | 4716 ft | 308 kts | 57° |
| 2026-05-06 18:00 | 58.51024 | -155.24963 | 4715 ft | 309 kts | 57° |
| 2026-05-06 18:00 | 58.52129 | -155.21421 | 4716 ft | 309 kts | 57° |
| 2026-05-06 18:01 | 58.53223 | -155.17916 | 4718 ft | 310 kts | 57° |
| 2026-05-06 18:01 | 58.54327 | -155.14370 | 4720 ft | 310 kts | 57° |
| 2026-05-06 18:01 | 58.55434 | -155.10824 | 4717 ft | 310 kts | 57° |
| 2026-05-06 18:01 | 58.56543 | -155.07275 | 4713 ft | 310 kts | 57° |
| 2026-05-06 18:02 | 58.57650 | -155.03727 | 4713 ft | 310 kts | 57° |
| 2026-05-06 18:02 | 58.58755 | -155.00176 | 4713 ft | 310 kts | 57° |
| 2026-05-06 18:02 | 58.59860 | -154.96622 | 4726 ft | 310 kts | 57° |
| 2026-05-06 18:02 | 58.60969 | -154.93074 | 4726 ft | 311 kts | 57° |
| 2026-05-06 18:03 | 58.62078 | -154.89516 | 4717 ft | 311 kts | 57° |
| 2026-05-06 18:03 | 58.63191 | -154.85949 | 4711 ft | 311 kts | 57° |
| 2026-05-06 18:03 | 58.64303 | -154.82389 | 4711 ft | 311 kts | 57° |
| 2026-05-06 18:03 | 58.65416 | -154.78807 | 4715 ft | 312 kts | 57° |
| 2026-05-06 18:04 | 58.66512 | -154.75269 | 4708 ft | 311 kts | 58° |
| 2026-05-06 18:04 | 58.67628 | -154.71702 | 4709 ft | 311 kts | 57° |
| 2026-05-06 18:04 | 58.68736 | -154.68133 | 4716 ft | 310 kts | 57° |
| 2026-05-06 18:04 | 58.69826 | -154.64559 | 4717 ft | 309 kts | 57° |
| 2026-05-06 18:05 | 58.70901 | -154.60978 | 4712 ft | 310 kts | 57° |
| 2026-05-06 18:05 | 58.71973 | -154.57397 | 4703 ft | 307 kts | 57° |
| 2026-05-06 18:05 | 58.73032 | -154.53839 | 4705 ft | 307 kts | 58° |
| 2026-05-06 18:05 | 58.74098 | -154.50256 | 4706 ft | 307 kts | 58° |
| 2026-05-06 18:06 | 58.75161 | -154.46687 | 4698 ft | 309 kts | 58° |
| 2026-05-06 18:06 | 58.76233 | -154.43070 | 4692 ft | 310 kts | 58° |
| 2026-05-06 18:06 | 58.77305 | -154.39482 | 4694 ft | 308 kts | 57° |
| 2026-05-06 18:06 | 58.78375 | -154.35909 | 4696 ft | 308 kts | 57° |
| 2026-05-06 18:07 | 58.79432 | -154.32315 | 4692 ft | 309 kts | 58° |
| 2026-05-06 18:07 | 58.80475 | -154.28724 | 4694 ft | 312 kts | 58° |
| 2026-05-06 18:07 | 58.81536 | -154.25065 | 4696 ft | 313 kts | 58° |
| 2026-05-06 18:07 | 58.82606 | -154.21384 | 4700 ft | 315 kts | 58° |
| 2026-05-06 18:08 | 58.83684 | -154.17683 | 4699 ft | 316 kts | 57° |
| 2026-05-06 18:08 | 58.84756 | -154.13984 | 4691 ft | 316 kts | 58° |
| 2026-05-06 18:08 | 58.85836 | -154.10267 | 4691 ft | 316 kts | 58° |
| 2026-05-06 18:08 | 58.86915 | -154.06562 | 4687 ft | 316 kts | 57° |
| 2026-05-06 18:09 | 58.87984 | -154.02845 | 4686 ft | 316 kts | 58° |
| 2026-05-06 18:09 | 58.89058 | -153.99141 | 4685 ft | 315 kts | 57° |
| 2026-05-06 18:09 | 58.90142 | -153.95460 | 4686 ft | 315 kts | 57° |
| 2026-05-06 18:09 | 58.91215 | -153.91766 | 4686 ft | 315 kts | 58° |
| 2026-05-06 18:10 | 58.92288 | -153.88073 | 4674 ft | 315 kts | 58° |
| 2026-05-06 18:10 | 58.93354 | -153.84365 | 4676 ft | 315 kts | 58° |
| 2026-05-06 18:10 | 58.94417 | -153.80654 | 4673 ft | 315 kts | 58° |
| 2026-05-06 18:10 | 58.95470 | -153.76998 | 4694 ft | 314 kts | 57° |
| 2026-05-06 18:11 | 58.96525 | -153.73283 | 4694 ft | 315 kts | 57° |
| 2026-05-06 18:11 | 58.97568 | -153.69538 | 4694 ft | 316 kts | 58° |
| 2026-05-06 18:11 | 58.98609 | -153.65782 | 4694 ft | 316 kts | 58° |
| 2026-05-06 18:11 | 58.99654 | -153.62020 | 4684 ft | 317 kts | 58° |
| 2026-05-06 18:12 | 59.00705 | -153.58258 | 4683 ft | 318 kts | 58° |
| 2026-05-06 18:12 | 59.01755 | -153.54472 | 4683 ft | 318 kts | 58° |
| 2026-05-06 18:12 | 59.02801 | -153.50678 | 4683 ft | 319 kts | 59° |
| 2026-05-06 18:12 | 59.03853 | -153.46895 | 4684 ft | 319 kts | 58° |
| 2026-05-06 18:13 | 59.04905 | -153.43103 | 4688 ft | 318 kts | 58° |
| 2026-05-06 18:13 | 59.05955 | -153.39309 | 4674 ft | 319 kts | 59° |
| 2026-05-06 18:13 | 59.07008 | -153.35503 | 4674 ft | 319 kts | 57° |
| 2026-05-06 18:13 | 59.08059 | -153.31696 | 4673 ft | 319 kts | 58° |
| 2026-05-06 18:14 | 59.09117 | -153.27892 | 4675 ft | 319 kts | 58° |
| 2026-05-06 18:14 | 59.10171 | -153.24089 | 4675 ft | 319 kts | 57° |
| 2026-05-06 18:14 | 59.11204 | -153.20333 | 4676 ft | 319 kts | 58° |
| 2026-05-06 18:14 | 59.12252 | -153.16526 | 4676 ft | 319 kts | 58° |
| 2026-05-06 18:15 | 59.13299 | -153.12716 | 4684 ft | 319 kts | 59° |
| 2026-05-06 18:15 | 59.14374 | -153.08932 | 4682 ft | 320 kts | 59° |
| 2026-05-06 18:15 | 59.15481 | -153.05168 | 4681 ft | 320 kts | 58° |
| 2026-05-06 18:15 | 59.16594 | -153.01406 | 4682 ft | 320 kts | 58° |
| 2026-05-06 18:16 | 59.17711 | -152.97642 | 4683 ft | 321 kts | 58° |
| 2026-05-06 18:16 | 59.18829 | -152.93883 | 4686 ft | 320 kts | 58° |
| 2026-05-06 18:16 | 59.19947 | -152.90118 | 4683 ft | 320 kts | 58° |
| 2026-05-06 18:16 | 59.21066 | -152.86351 | 4683 ft | 321 kts | 58° |
| 2026-05-06 18:17 | 59.22184 | -152.82588 | 4684 ft | 321 kts | 58° |
| 2026-05-06 18:17 | 59.23304 | -152.78811 | 4686 ft | 321 kts | 58° |
| 2026-05-06 18:17 | 59.24423 | -152.75045 | 4683 ft | 321 kts | 58° |
| 2026-05-06 18:17 | 59.25543 | -152.71264 | 4683 ft | 321 kts | 58° |
| 2026-05-06 18:18 | 59.26663 | -152.67477 | 4682 ft | 321 kts | 58° |
| 2026-05-06 18:18 | 59.27769 | -152.63740 | 4673 ft | 321 kts | 58° |
| 2026-05-06 18:18 | 59.28884 | -152.59961 | 4672 ft | 321 kts | 58° |
| 2026-05-06 18:18 | 59.29999 | -152.56171 | 4677 ft | 321 kts | 58° |
| 2026-05-06 18:19 | 59.31115 | -152.52386 | 4673 ft | 321 kts | 58° |
| 2026-05-06 18:19 | 59.32229 | -152.48597 | 4673 ft | 321 kts | 58° |
| 2026-05-06 18:19 | 59.33343 | -152.44808 | 4673 ft | 321 kts | 58° |
| 2026-05-06 18:19 | 59.34461 | -152.41010 | 4665 ft | 321 kts | 58° |
| 2026-05-06 18:20 | 59.35574 | -152.37220 | 4672 ft | 321 kts | 58° |
| 2026-05-06 18:20 | 59.36688 | -152.33420 | 4670 ft | 321 kts | 58° |
| 2026-05-06 18:20 | 59.37800 | -152.29626 | 4669 ft | 321 kts | 58° |
| 2026-05-06 18:20 | 59.38913 | -152.25813 | 4673 ft | 321 kts | 58° |
| 2026-05-06 18:21 | 59.40023 | -152.22018 | 4666 ft | 321 kts | 59° |
| 2026-05-06 18:21 | 59.41137 | -152.18211 | 4664 ft | 321 kts | 58° |
| 2026-05-06 18:21 | 59.42234 | -152.14458 | 4665 ft | 321 kts | 58° |
| 2026-05-06 18:21 | 59.43344 | -152.10655 | 4664 ft | 321 kts | 59° |
| 2026-05-06 18:22 | 59.44459 | -152.06840 | 4664 ft | 321 kts | 58° |
| 2026-05-06 18:22 | 59.45568 | -152.03036 | 4666 ft | 321 kts | 58° |
| 2026-05-06 18:22 | 59.46679 | -151.99224 | 4664 ft | 321 kts | 58° |
| 2026-05-06 18:22 | 59.47787 | -151.95417 | 4663 ft | 321 kts | 58° |
| 2026-05-06 18:23 | 59.48894 | -151.91596 | 4683 ft | 320 kts | 59° |
| 2026-05-06 18:23 | 59.50010 | -151.87816 | 4684 ft | 319 kts | 59° |
| 2026-05-06 18:23 | 59.51132 | -151.84065 | 4705 ft | 317 kts | 58° |
| 2026-05-06 18:23 | 59.52253 | -151.80338 | 4707 ft | 316 kts | 59° |
| 2026-05-06 18:24 | 59.53373 | -151.76618 | 4703 ft | 315 kts | 58° |
| 2026-05-06 18:24 | 59.54486 | -151.72913 | 4702 ft | 314 kts | 58° |
| 2026-05-06 18:24 | 59.55598 | -151.69212 | 4701 ft | 313 kts | 59° |
| 2026-05-06 18:24 | 59.56711 | -151.65512 | 4691 ft | 314 kts | 59° |
| 2026-05-06 18:25 | 59.57822 | -151.61810 | 4693 ft | 313 kts | 58° |
| 2026-05-06 18:25 | 59.58931 | -151.58111 | 4693 ft | 314 kts | 59° |
| 2026-05-06 18:25 | 59.60029 | -151.54448 | 4693 ft | 314 kts | 58° |
| 2026-05-06 18:25 | 59.61138 | -151.50741 | 4693 ft | 314 kts | 58° |
| 2026-05-06 18:26 | 59.62249 | -151.47030 | 4694 ft | 314 kts | 59° |
| 2026-05-06 18:26 | 59.63083 | -151.43060 | 4669 ft | 315 kts | 80° |
| 2026-05-06 18:26 | 59.62986 | -151.38752 | 4667 ft | 316 kts | 106° |
| 2026-05-06 18:26 | 59.61997 | -151.34920 | 4663 ft | 314 kts | 131° |
| 2026-05-06 18:27 | 59.60307 | -151.32251 | 4665 ft | 311 kts | 156° |
| 2026-05-06 18:27 | 59.58238 | -151.31222 | 4663 ft | 307 kts | 181° |
| 2026-05-06 18:27 | 59.56140 | -151.31796 | 4672 ft | 303 kts | 195° |
| 2026-05-06 18:27 | 59.54087 | -151.32747 | 4677 ft | 303 kts | 196° |
| 2026-05-06 18:28 | 59.52026 | -151.33322 | 4667 ft | 306 kts | 180° |
| 2026-05-06 18:28 | 59.49904 | -151.32890 | 4674 ft | 306 kts | 175° |
| 2026-05-06 18:28 | 59.47786 | -151.32377 | 4683 ft | 308 kts | 175° |
| 2026-05-06 18:28 | 59.45656 | -151.31833 | 4691 ft | 310 kts | 174° |
| 2026-05-06 18:29 | 59.43518 | -151.31241 | 4690 ft | 310 kts | 174° |
| 2026-05-06 18:29 | 59.41382 | -151.30614 | 4690 ft | 310 kts | 174° |
| 2026-05-06 18:29 | 59.39251 | -151.29985 | 4685 ft | 310 kts | 173° |
| 2026-05-06 18:29 | 59.37118 | -151.29362 | 4684 ft | 309 kts | 174° |
| 2026-05-06 18:30 | 59.34993 | -151.28741 | 4681 ft | 309 kts | 174° |
| 2026-05-06 18:30 | 59.32870 | -151.28125 | 4674 ft | 308 kts | 174° |
| 2026-05-06 18:30 | 59.30750 | -151.27457 | 4674 ft | 309 kts | 174° |
| 2026-05-06 18:30 | 59.28622 | -151.26762 | 4673 ft | 310 kts | 174° |
| 2026-05-06 18:31 | 59.26501 | -151.26038 | 4668 ft | 309 kts | 173° |
| 2026-05-06 18:31 | 59.24387 | -151.25322 | 4671 ft | 309 kts | 174° |
| 2026-05-06 18:31 | 59.22265 | -151.24614 | 4670 ft | 309 kts | 174° |
| 2026-05-06 18:31 | 59.20160 | -151.23925 | 4666 ft | 311 kts | 174° |
| 2026-05-06 18:32 | 59.18025 | -151.23211 | 4672 ft | 311 kts | 174° |
| 2026-05-06 18:32 | 59.15887 | -151.22479 | 4673 ft | 311 kts | 174° |
| 2026-05-06 18:32 | 59.13751 | -151.21748 | 4671 ft | 311 kts | 174° |
| 2026-05-06 18:32 | 59.11620 | -151.21013 | 4669 ft | 311 kts | 174° |
| 2026-05-06 18:33 | 59.09489 | -151.20279 | 4672 ft | 311 kts | 174° |
| 2026-05-06 18:33 | 59.07359 | -151.19543 | 4670 ft | 311 kts | 174° |
| 2026-05-06 18:33 | 59.05230 | -151.18804 | 4678 ft | 311 kts | 173° |
| 2026-05-06 18:33 | 59.03100 | -151.18078 | 4677 ft | 311 kts | 174° |
| 2026-05-06 18:34 | 59.00971 | -151.17348 | 4679 ft | 311 kts | 174° |
| 2026-05-06 18:34 | 58.98840 | -151.16625 | 4679 ft | 311 kts | 174° |
| 2026-05-06 18:34 | 58.96739 | -151.15906 | 4679 ft | 310 kts | 174° |
| 2026-05-06 18:34 | 58.94584 | -151.15170 | 4679 ft | 311 kts | 174° |
| 2026-05-06 18:35 | 58.92457 | -151.14447 | 4678 ft | 311 kts | 174° |
| 2026-05-06 18:35 | 58.90355 | -151.13727 | 4689 ft | 311 kts | 173° |
| 2026-05-06 18:35 | 58.88227 | -151.13010 | 4687 ft | 310 kts | 174° |
| 2026-05-06 18:35 | 58.86100 | -151.12286 | 4687 ft | 310 kts | 174° |
| 2026-05-06 18:36 | 58.83967 | -151.11569 | 4689 ft | 310 kts | 174° |
| 2026-05-06 18:36 | 58.81841 | -151.10851 | 4687 ft | 310 kts | 174° |
| 2026-05-06 18:36 | 58.79716 | -151.10136 | 4686 ft | 310 kts | 173° |
| 2026-05-06 18:36 | 58.77588 | -151.09426 | 4689 ft | 310 kts | 174° |
| 2026-05-06 18:37 | 58.75454 | -151.08702 | 4685 ft | 311 kts | 173° |
| 2026-05-06 18:37 | 58.74042 | -151.08226 | 4685 ft | 311 kts | 174° |
| 2026-05-06 18:37 | 58.71199 | -151.07248 | 4683 ft | 311 kts | 174° |
| 2026-05-06 18:37 | 58.69787 | -151.06766 | 4683 ft | 310 kts | 174° |
| 2026-05-06 18:38 | 58.67658 | -151.06033 | 4683 ft | 310 kts | 174° |
| 2026-05-06 18:38 | 58.65537 | -151.05309 | 4684 ft | 310 kts | 174° |
| 2026-05-06 18:38 | 58.63415 | -151.04589 | 4671 ft | 309 kts | 173° |
| 2026-05-06 18:38 | 58.61292 | -151.03899 | 4673 ft | 310 kts | 174° |
| 2026-05-06 18:39 | 58.58475 | -151.02996 | 4670 ft | 310 kts | 174° |
| 2026-05-06 18:39 | 58.56351 | -151.02326 | 4668 ft | 310 kts | 174° |
| 2026-05-06 18:39 | 58.54912 | -151.01872 | 4670 ft | 310 kts | 174° |
| 2026-05-06 18:40 | 58.50650 | -151.00527 | 4674 ft | 310 kts | 174° |
| 2026-05-06 18:40 | 58.48541 | -150.99864 | 4679 ft | 310 kts | 174° |
| 2026-05-06 18:40 | 58.46411 | -150.99191 | 4680 ft | 310 kts | 174° |
| 2026-05-06 18:40 | 58.44283 | -150.98519 | 4682 ft | 310 kts | 174° |
| 2026-05-06 18:41 | 58.42156 | -150.97849 | 4682 ft | 310 kts | 174° |
| 2026-05-06 18:41 | 58.40028 | -150.97184 | 4682 ft | 310 kts | 174° |
| 2026-05-06 18:41 | 58.37897 | -150.96510 | 4682 ft | 310 kts | 174° |
| 2026-05-06 18:41 | 58.35767 | -150.95843 | 4685 ft | 310 kts | 174° |
| 2026-05-06 18:42 | 58.33637 | -150.95176 | 4685 ft | 310 kts | 174° |
| 2026-05-06 18:42 | 58.31504 | -150.94510 | 4685 ft | 310 kts | 174° |
| 2026-05-06 18:42 | 58.29374 | -150.93839 | 4675 ft | 310 kts | 173° |
| 2026-05-06 18:42 | 58.27248 | -150.93208 | 4665 ft | 309 kts | 173° |
| 2026-05-06 18:43 | 58.25120 | -150.92628 | 4663 ft | 309 kts | 173° |
| 2026-05-06 18:43 | 58.22992 | -150.92063 | 4664 ft | 308 kts | 174° |
| 2026-05-06 18:43 | 58.20866 | -150.91502 | 4665 ft | 308 kts | 174° |
| 2026-05-06 18:43 | 58.18738 | -150.90947 | 4666 ft | 308 kts | 174° |
| 2026-05-06 18:44 | 58.16616 | -150.90392 | 4669 ft | 308 kts | 174° |
| 2026-05-06 18:44 | 58.14495 | -150.89844 | 4666 ft | 308 kts | 174° |
| 2026-05-06 18:44 | 58.12399 | -150.89296 | 4670 ft | 308 kts | 174° |
| 2026-05-06 18:44 | 58.10273 | -150.88743 | 4666 ft | 308 kts | 174° |
| 2026-05-06 18:45 | 58.08154 | -150.88189 | 4673 ft | 308 kts | 174° |
| 2026-05-06 18:45 | 58.06033 | -150.87640 | 4675 ft | 308 kts | 174° |
| 2026-05-06 18:45 | 58.03914 | -150.87089 | 4673 ft | 307 kts | 174° |
| 2026-05-06 18:45 | 58.01796 | -150.86539 | 4674 ft | 307 kts | 174° |
| 2026-05-06 18:46 | 57.99683 | -150.85992 | 4673 ft | 306 kts | 174° |
| 2026-05-06 18:46 | 57.97574 | -150.85444 | 4670 ft | 305 kts | 174° |
| 2026-05-06 18:46 | 57.95473 | -150.84895 | 4666 ft | 304 kts | 174° |
| 2026-05-06 18:46 | 57.93380 | -150.84359 | 4664 ft | 303 kts | 174° |
| 2026-05-06 18:47 | 57.91292 | -150.83833 | 4666 ft | 302 kts | 174° |
| 2026-05-06 18:47 | 57.89207 | -150.83310 | 4663 ft | 302 kts | 174° |
| 2026-05-06 18:47 | 57.87154 | -150.82794 | 4662 ft | 301 kts | 174° |
| 2026-05-06 18:47 | 57.85078 | -150.82276 | 4663 ft | 301 kts | 174° |
| 2026-05-06 18:48 | 57.83005 | -150.81758 | 4658 ft | 300 kts | 174° |
| 2026-05-06 18:48 | 57.80938 | -150.81236 | 4659 ft | 299 kts | 174° |
| 2026-05-06 18:48 | 57.78874 | -150.80711 | 4657 ft | 298 kts | 174° |
| 2026-05-06 18:48 | 57.76823 | -150.80185 | 4655 ft | 297 kts | 174° |
| 2026-05-06 18:49 | 57.74774 | -150.79663 | 4655 ft | 296 kts | 174° |
| 2026-05-06 18:49 | 57.72737 | -150.79140 | 4654 ft | 295 kts | 174° |
| 2026-05-06 18:49 | 57.70705 | -150.78623 | 4651 ft | 294 kts | 174° |
| 2026-05-06 18:49 | 57.68682 | -150.78102 | 4653 ft | 292 kts | 174° |
| 2026-05-06 18:50 | 57.66672 | -150.77588 | 4654 ft | 292 kts | 174° |
| 2026-05-06 18:50 | 57.64685 | -150.77077 | 4656 ft | 291 kts | 174° |
| 2026-05-06 18:50 | 57.62654 | -150.76561 | 4655 ft | 291 kts | 174° |
| 2026-05-06 18:50 | 57.60666 | -150.76053 | 4650 ft | 291 kts | 174° |
| 2026-05-06 18:51 | 57.58664 | -150.75553 | 4654 ft | 290 kts | 174° |
| 2026-05-06 18:51 | 57.56664 | -150.75060 | 4650 ft | 289 kts | 174° |
| 2026-05-06 18:51 | 57.54671 | -150.74567 | 4651 ft | 289 kts | 174° |
| 2026-05-06 18:51 | 57.52677 | -150.74083 | 4652 ft | 288 kts | 174° |
| 2026-05-06 18:52 | 57.50692 | -150.73593 | 4647 ft | 288 kts | 174° |
| 2026-05-06 18:52 | 57.48702 | -150.73106 | 4647 ft | 288 kts | 174° |
| 2026-05-06 18:52 | 57.46712 | -150.72616 | 4647 ft | 288 kts | 174° |
| 2026-05-06 18:52 | 57.44725 | -150.72129 | 4653 ft | 289 kts | 174° |
| 2026-05-06 18:53 | 57.42728 | -150.71642 | 4654 ft | 289 kts | 174° |
| 2026-05-06 18:53 | 57.40723 | -150.71153 | 4660 ft | 290 kts | 174° |
| 2026-05-06 18:53 | 57.38716 | -150.70667 | 4663 ft | 292 kts | 174° |
| 2026-05-06 18:53 | 57.36725 | -150.70177 | 4656 ft | 292 kts | 174° |
| 2026-05-06 18:54 | 57.34706 | -150.69671 | 4654 ft | 293 kts | 174° |
| 2026-05-06 18:54 | 57.32682 | -150.69137 | 4655 ft | 294 kts | 174° |
| 2026-05-06 18:54 | 57.30653 | -150.68611 | 4658 ft | 295 kts | 174° |
| 2026-05-06 18:54 | 57.28608 | -150.68069 | 4657 ft | 297 kts | 174° |
| 2026-05-06 18:55 | 57.26562 | -150.67520 | 4659 ft | 297 kts | 174° |
| 2026-05-06 18:55 | 57.24517 | -150.66956 | 4660 ft | 298 kts | 174° |
| 2026-05-06 18:55 | 57.22464 | -150.66391 | 4662 ft | 298 kts | 174° |
| 2026-05-06 18:55 | 57.20410 | -150.65830 | 4662 ft | 299 kts | 174° |
| 2026-05-06 18:56 | 57.18347 | -150.65261 | 4663 ft | 300 kts | 174° |
| 2026-05-06 18:56 | 57.16279 | -150.64698 | 4664 ft | 301 kts | 174° |
| 2026-05-06 18:56 | 57.14204 | -150.64123 | 4669 ft | 302 kts | 174° |
| 2026-05-06 18:56 | 57.12120 | -150.63555 | 4671 ft | 303 kts | 174° |
| 2026-05-06 18:57 | 57.10027 | -150.62982 | 4677 ft | 304 kts | 174° |
| 2026-05-06 18:57 | 57.07931 | -150.62419 | 4679 ft | 304 kts | 174° |
| 2026-05-06 18:57 | 57.05836 | -150.61850 | 4679 ft | 305 kts | 174° |
| 2026-05-06 18:57 | 57.03732 | -150.61280 | 4681 ft | 305 kts | 174° |
| 2026-05-06 18:58 | 57.01658 | -150.60721 | 4682 ft | 305 kts | 174° |
| 2026-05-06 18:58 | 56.99556 | -150.60150 | 4683 ft | 305 kts | 173° |
| 2026-05-06 18:58 | 56.97453 | -150.59866 | 4672 ft | 302 kts | 189° |
| 2026-05-06 18:58 | 56.95515 | -150.61152 | 4663 ft | 297 kts | 216° |
| 2026-05-06 18:59 | 56.94123 | -150.63856 | 4667 ft | 292 kts | 242° |
| 2026-05-06 18:59 | 56.93554 | -150.67396 | 4667 ft | 291 kts | 266° |
| 2026-05-06 18:59 | 56.93567 | -150.71104 | 4680 ft | 291 kts | 271° |
| 2026-05-06 18:59 | 56.93657 | -150.74812 | 4683 ft | 291 kts | 273° |
| 2026-05-06 19:00 | 56.93783 | -150.78511 | 4687 ft | 291 kts | 273° |
| 2026-05-06 19:00 | 56.93930 | -150.82206 | 4688 ft | 291 kts | 274° |
| 2026-05-06 19:00 | 56.94086 | -150.85843 | 4684 ft | 289 kts | 274° |
| 2026-05-06 19:00 | 56.94250 | -150.89509 | 4684 ft | 288 kts | 274° |
| 2026-05-06 19:01 | 56.94418 | -150.93167 | 4681 ft | 289 kts | 274° |
| 2026-05-06 19:01 | 56.94579 | -150.96846 | 4680 ft | 289 kts | 274° |
| 2026-05-06 19:01 | 56.94740 | -151.00530 | 4680 ft | 291 kts | 274° |
| 2026-05-06 19:01 | 56.94901 | -151.04214 | 4682 ft | 290 kts | 274° |
| 2026-05-06 19:02 | 56.95063 | -151.07895 | 4676 ft | 291 kts | 274° |
| 2026-05-06 19:02 | 56.95219 | -151.11601 | 4678 ft | 292 kts | 274° |
| 2026-05-06 19:02 | 56.95378 | -151.15335 | 4680 ft | 293 kts | 274° |
| 2026-05-06 19:02 | 56.95537 | -151.19052 | 4678 ft | 293 kts | 274° |
| 2026-05-06 19:03 | 56.95695 | -151.22790 | 4690 ft | 294 kts | 274° |
| 2026-05-06 19:03 | 56.95844 | -151.26534 | 4686 ft | 295 kts | 274° |
| 2026-05-06 19:03 | 56.95994 | -151.30295 | 4685 ft | 296 kts | 274° |
| 2026-05-06 19:03 | 56.96137 | -151.34015 | 4688 ft | 297 kts | 274° |
| 2026-05-06 19:04 | 56.96285 | -151.37790 | 4685 ft | 297 kts | 274° |
| 2026-05-06 19:04 | 56.96429 | -151.41560 | 4686 ft | 296 kts | 274° |
| 2026-05-06 19:04 | 56.96575 | -151.45331 | 4685 ft | 296 kts | 274° |
| 2026-05-06 19:04 | 56.96716 | -151.49098 | 4683 ft | 297 kts | 274° |
| 2026-05-06 19:05 | 56.96857 | -151.52881 | 4685 ft | 297 kts | 274° |
| 2026-05-06 19:05 | 56.96996 | -151.56667 | 4685 ft | 297 kts | 274° |
| 2026-05-06 19:05 | 56.97136 | -151.60449 | 4680 ft | 298 kts | 274° |
| 2026-05-06 19:05 | 56.97274 | -151.64247 | 4680 ft | 299 kts | 274° |
| 2026-05-06 19:06 | 56.97413 | -151.68056 | 4683 ft | 299 kts | 274° |
| 2026-05-06 19:06 | 56.97552 | -151.71857 | 4685 ft | 299 kts | 274° |
| 2026-05-06 19:06 | 56.97691 | -151.75655 | 4683 ft | 298 kts | 274° |
| 2026-05-06 19:06 | 56.97829 | -151.79455 | 4682 ft | 299 kts | 274° |
| 2026-05-06 19:07 | 56.97967 | -151.83251 | 4684 ft | 297 kts | 274° |
| 2026-05-06 19:07 | 56.98103 | -151.87027 | 4682 ft | 298 kts | 274° |
| 2026-05-06 19:07 | 56.98231 | -151.90778 | 4681 ft | 299 kts | 274° |
| 2026-05-06 19:07 | 56.98361 | -151.94586 | 4676 ft | 299 kts | 274° |
| 2026-05-06 19:08 | 56.98486 | -151.98383 | 4675 ft | 298 kts | 274° |
| 2026-05-06 19:08 | 56.98609 | -152.02175 | 4675 ft | 297 kts | 274° |
| 2026-05-06 19:08 | 56.98730 | -152.05963 | 4674 ft | 298 kts | 274° |
| 2026-05-06 19:08 | 56.98853 | -152.09751 | 4673 ft | 298 kts | 273° |
| 2026-05-06 19:09 | 56.98975 | -152.13545 | 4670 ft | 299 kts | 273° |
| 2026-05-06 19:09 | 56.99098 | -152.17344 | 4673 ft | 298 kts | 273° |
| 2026-05-06 19:09 | 56.99218 | -152.21130 | 4672 ft | 297 kts | 273° |
| 2026-05-06 19:09 | 56.99339 | -152.24921 | 4671 ft | 297 kts | 273° |
| 2026-05-06 19:10 | 56.99458 | -152.28711 | 4676 ft | 296 kts | 274° |
| 2026-05-06 19:10 | 56.99575 | -152.32470 | 4676 ft | 295 kts | 273° |
| 2026-05-06 19:10 | 56.99691 | -152.36228 | 4668 ft | 295 kts | 273° |
| 2026-05-06 19:10 | 56.99807 | -152.39988 | 4667 ft | 296 kts | 273° |
| 2026-05-06 19:11 | 56.99921 | -152.43715 | 4668 ft | 296 kts | 273° |
| 2026-05-06 19:11 | 57.00036 | -152.47489 | 4667 ft | 296 kts | 273° |
| 2026-05-06 19:11 | 57.00150 | -152.51263 | 4674 ft | 297 kts | 274° |
| 2026-05-06 19:11 | 57.00260 | -152.55058 | 4675 ft | 298 kts | 273° |
| 2026-05-06 19:12 | 57.00367 | -152.58872 | 4679 ft | 299 kts | 273° |
| 2026-05-06 19:12 | 57.00471 | -152.62679 | 4674 ft | 299 kts | 273° |
| 2026-05-06 19:12 | 57.00575 | -152.66492 | 4675 ft | 300 kts | 273° |
| 2026-05-06 19:12 | 57.00678 | -152.70302 | 4675 ft | 300 kts | 273° |
| 2026-05-06 19:13 | 57.00779 | -152.74126 | 4676 ft | 300 kts | 273° |
| 2026-05-06 19:13 | 57.00875 | -152.77932 | 4675 ft | 299 kts | 273° |
| 2026-05-06 19:13 | 57.00975 | -152.81754 | 4673 ft | 300 kts | 273° |
| 2026-05-06 19:13 | 57.01075 | -152.85570 | 4675 ft | 299 kts | 273° |
| 2026-05-06 19:14 | 57.01175 | -152.89397 | 4668 ft | 300 kts | 273° |
| 2026-05-06 19:14 | 57.01276 | -152.93221 | 4668 ft | 301 kts | 273° |
| 2026-05-06 19:14 | 57.01381 | -152.97057 | 4669 ft | 301 kts | 273° |
| 2026-05-06 19:14 | 57.01479 | -153.00893 | 4670 ft | 301 kts | 273° |
| 2026-05-06 19:15 | 57.01574 | -153.04672 | 4675 ft | 300 kts | 273° |
| 2026-05-06 19:15 | 57.01672 | -153.08533 | 4681 ft | 301 kts | 273° |
| 2026-05-06 19:15 | 57.01764 | -153.12336 | 4682 ft | 300 kts | 273° |
| 2026-05-06 19:15 | 57.01855 | -153.16169 | 4675 ft | 300 kts | 273° |
| 2026-05-06 19:16 | 57.01939 | -153.19996 | 4675 ft | 300 kts | 273° |
| 2026-05-06 19:16 | 57.02026 | -153.23831 | 4677 ft | 301 kts | 273° |
| 2026-05-06 19:16 | 57.02111 | -153.27674 | 4677 ft | 301 kts | 273° |
| 2026-05-06 19:16 | 57.02200 | -153.31519 | 4677 ft | 302 kts | 273° |
| 2026-05-06 19:17 | 57.02287 | -153.35380 | 4677 ft | 302 kts | 273° |
| 2026-05-06 19:17 | 57.02367 | -153.39227 | 4678 ft | 301 kts | 273° |
| 2026-05-06 19:17 | 57.02424 | -153.43059 | 4677 ft | 300 kts | 273° |
| 2026-05-06 19:17 | 57.02481 | -153.46867 | 4677 ft | 298 kts | 273° |
| 2026-05-06 19:18 | 57.02526 | -153.50671 | 4679 ft | 296 kts | 273° |
| 2026-05-06 19:18 | 57.02559 | -153.54439 | 4676 ft | 295 kts | 273° |
| 2026-05-06 19:18 | 57.02602 | -153.58206 | 4674 ft | 295 kts | 273° |
| 2026-05-06 19:18 | 57.02642 | -153.61925 | 4673 ft | 294 kts | 273° |
| 2026-05-06 19:19 | 57.02688 | -153.65689 | 4690 ft | 296 kts | 273° |
| 2026-05-06 19:19 | 57.02741 | -153.69459 | 4686 ft | 294 kts | 272° |
| 2026-05-06 19:19 | 57.02784 | -153.73219 | 4692 ft | 294 kts | 273° |
| 2026-05-06 19:19 | 57.02825 | -153.76989 | 4693 ft | 297 kts | 273° |
| 2026-05-06 19:20 | 57.02905 | -153.80769 | 4693 ft | 295 kts | 273° |
| 2026-05-06 19:20 | 57.02971 | -153.84529 | 4699 ft | 295 kts | 272° |
| 2026-05-06 19:20 | 57.03037 | -153.88289 | 4699 ft | 293 kts | 272° |
| 2026-05-06 19:20 | 57.03102 | -153.92038 | 4708 ft | 295 kts | 272° |
| 2026-05-06 19:21 | 57.03186 | -153.95804 | 4710 ft | 295 kts | 273° |
| 2026-05-06 19:21 | 57.03261 | -153.99577 | 4709 ft | 295 kts | 272° |
| 2026-05-06 19:21 | 57.03337 | -154.03313 | 4708 ft | 295 kts | 272° |
| 2026-05-06 19:21 | 57.03413 | -154.07069 | 4709 ft | 295 kts | 273° |
| 2026-05-06 19:22 | 57.03487 | -154.10833 | 4703 ft | 295 kts | 272° |
| 2026-05-06 19:22 | 57.03558 | -154.14599 | 4703 ft | 295 kts | 272° |
| 2026-05-06 19:22 | 57.03631 | -154.18369 | 4712 ft | 295 kts | 272° |
| 2026-05-06 19:22 | 57.03702 | -154.22127 | 4713 ft | 295 kts | 272° |
| 2026-05-06 19:23 | 57.03772 | -154.25892 | 4720 ft | 295 kts | 272° |
| 2026-05-06 19:23 | 57.03846 | -154.29650 | 4720 ft | 295 kts | 272° |
| 2026-05-06 19:23 | 57.03916 | -154.33421 | 4721 ft | 295 kts | 272° |
| 2026-05-06 19:23 | 57.03983 | -154.37192 | 4721 ft | 295 kts | 272° |
| 2026-05-06 19:24 | 57.04033 | -154.39691 | 4718 ft | 295 kts | 272° |
| 2026-05-06 19:24 | 57.04106 | -154.43462 | 4729 ft | 295 kts | 272° |
| 2026-05-06 19:24 | 57.04199 | -154.47234 | 4730 ft | 295 kts | 272° |
| 2026-05-06 19:24 | 57.04295 | -154.50994 | 4730 ft | 294 kts | 272° |
| 2026-05-06 19:25 | 57.04426 | -154.55971 | 4723 ft | 294 kts | 272° |
| 2026-05-06 19:25 | 57.04492 | -154.58497 | 4724 ft | 293 kts | 272° |
| 2026-05-06 19:25 | 57.04592 | -154.62234 | 4724 ft | 292 kts | 272° |
| 2026-05-06 19:25 | 57.04691 | -154.65961 | 4723 ft | 292 kts | 272° |
| 2026-05-06 19:26 | 57.04791 | -154.69694 | 4724 ft | 293 kts | 272° |
| 2026-05-06 19:26 | 57.04888 | -154.73431 | 4725 ft | 293 kts | 272° |
| 2026-05-06 19:26 | 57.04985 | -154.77118 | 4725 ft | 292 kts | 272° |
| 2026-05-06 19:26 | 57.05083 | -154.80903 | 4723 ft | 293 kts | 272° |
| 2026-05-06 19:27 | 57.05188 | -154.84592 | 4726 ft | 293 kts | 275° |
| 2026-05-06 19:27 | 57.05832 | -154.88116 | 4709 ft | 296 kts | 302° |
| 2026-05-06 19:27 | 57.07326 | -154.90714 | 4715 ft | 300 kts | 328° |
| 2026-05-06 19:27 | 57.09319 | -154.91836 | 4718 ft | 305 kts | 354° |
| 2026-05-06 19:28 | 57.11422 | -154.91269 | 4712 ft | 311 kts | 19° |
| 2026-05-06 19:28 | 57.13259 | -154.89151 | 4720 ft | 313 kts | 37° |
| 2026-05-06 19:28 | 57.14956 | -154.86646 | 4725 ft | 313 kts | 38° |
| 2026-05-06 19:28 | 57.16486 | -154.83772 | 4717 ft | 316 kts | 54° |
| 2026-05-06 19:29 | 57.17610 | -154.80255 | 4730 ft | 322 kts | 60° |
| 2026-05-06 19:29 | 57.18706 | -154.76587 | 4738 ft | 328 kts | 60° |
| 2026-05-06 19:29 | 57.19784 | -154.72855 | 4743 ft | 331 kts | 61° |
| 2026-05-06 19:29 | 57.20822 | -154.69040 | 4745 ft | 334 kts | 64° |
| 2026-05-06 19:30 | 57.21786 | -154.65131 | 4743 ft | 335 kts | 65° |
| 2026-05-06 19:30 | 57.22736 | -154.61189 | 4746 ft | 337 kts | 65° |
| 2026-05-06 19:30 | 57.23683 | -154.57225 | 4741 ft | 338 kts | 65° |
| 2026-05-06 19:30 | 57.24625 | -154.53253 | 4742 ft | 338 kts | 65° |
| 2026-05-06 19:31 | 57.25569 | -154.49262 | 4741 ft | 339 kts | 65° |
| 2026-05-06 19:31 | 57.26512 | -154.45271 | 4750 ft | 339 kts | 65° |
| 2026-05-06 19:31 | 57.28381 | -154.37262 | 4750 ft | 339 kts | 65° |
| 2026-05-06 19:32 | 57.29306 | -154.33245 | 4748 ft | 340 kts | 66° |
| 2026-05-06 19:32 | 57.30221 | -154.29274 | 4741 ft | 340 kts | 66° |
| 2026-05-06 19:32 | 57.31152 | -154.25258 | 4742 ft | 339 kts | 65° |
| 2026-05-06 19:32 | 57.32086 | -154.21250 | 4742 ft | 339 kts | 65° |
| 2026-05-06 19:33 | 57.33014 | -154.17227 | 4745 ft | 340 kts | 65° |
| 2026-05-06 19:33 | 57.33941 | -154.13204 | 4746 ft | 340 kts | 66° |
| 2026-05-06 19:33 | 57.34857 | -154.09170 | 4745 ft | 339 kts | 66° |
| 2026-05-06 19:33 | 57.35710 | -154.05100 | 4734 ft | 338 kts | 69° |
| 2026-05-06 19:34 | 57.36495 | -154.01002 | 4733 ft | 337 kts | 69° |
| 2026-05-06 19:34 | 57.37251 | -153.96887 | 4731 ft | 337 kts | 71° |
| 2026-05-06 19:34 | 57.37933 | -153.92730 | 4731 ft | 337 kts | 72° |
| 2026-05-06 19:34 | 57.38588 | -153.88565 | 4731 ft | 336 kts | 72° |
| 2026-05-06 19:35 | 57.39238 | -153.84401 | 4726 ft | 336 kts | 73° |
| 2026-05-06 19:35 | 57.39880 | -153.80225 | 4728 ft | 337 kts | 73° |
| 2026-05-06 19:35 | 57.40512 | -153.76094 | 4727 ft | 337 kts | 72° |
| 2026-05-06 19:35 | 57.41148 | -153.71911 | 4728 ft | 337 kts | 73° |
| 2026-05-06 19:36 | 57.41811 | -153.67755 | 4720 ft | 335 kts | 73° |
| 2026-05-06 19:36 | 57.42482 | -153.63616 | 4723 ft | 335 kts | 73° |
| 2026-05-06 19:36 | 57.43152 | -153.59481 | 4722 ft | 335 kts | 73° |
| 2026-05-06 19:36 | 57.43825 | -153.55336 | 4721 ft | 335 kts | 73° |
| 2026-05-06 19:37 | 57.44496 | -153.51197 | 4723 ft | 335 kts | 73° |
| 2026-05-06 19:37 | 57.45166 | -153.47056 | 4723 ft | 334 kts | 73° |
| 2026-05-06 19:37 | 57.45843 | -153.42908 | 4713 ft | 335 kts | 73° |
| 2026-05-06 19:37 | 57.46512 | -153.38765 | 4707 ft | 334 kts | 73° |
| 2026-05-06 19:38 | 57.47182 | -153.34627 | 4711 ft | 335 kts | 73° |
| 2026-05-06 19:38 | 57.47852 | -153.30465 | 4712 ft | 335 kts | 73° |
| 2026-05-06 19:38 | 57.48524 | -153.26312 | 4710 ft | 336 kts | 73° |
| 2026-05-06 19:38 | 57.49193 | -153.22166 | 4710 ft | 335 kts | 73° |
| 2026-05-06 19:39 | 57.49864 | -153.18028 | 4708 ft | 334 kts | 73° |
| 2026-05-06 19:39 | 57.50531 | -153.13890 | 4707 ft | 334 kts | 73° |
| 2026-05-06 19:39 | 57.51200 | -153.09762 | 4691 ft | 334 kts | 73° |
| 2026-05-06 19:39 | 57.51862 | -153.05630 | 4693 ft | 333 kts | 73° |
| 2026-05-06 19:40 | 57.52526 | -153.01506 | 4694 ft | 333 kts | 73° |
| 2026-05-06 19:40 | 57.53194 | -152.97384 | 4693 ft | 333 kts | 73° |
| 2026-05-06 19:40 | 57.53860 | -152.93262 | 4696 ft | 333 kts | 73° |
| 2026-05-06 19:40 | 57.54538 | -152.89125 | 4695 ft | 334 kts | 73° |
| 2026-05-06 19:41 | 57.55214 | -152.84992 | 4697 ft | 334 kts | 73° |
| 2026-05-06 19:41 | 57.55970 | -152.80956 | 4699 ft | 334 kts | 66° |
| 2026-05-06 19:41 | 57.57028 | -152.77186 | 4683 ft | 316 kts | 59° |
| 2026-05-06 19:41 | 57.58144 | -152.73820 | 4390 ft | 301 kts | 58° |
| 2026-05-06 19:42 | 57.59245 | -152.70502 | 3645 ft | 302 kts | 58° |
| 2026-05-06 19:42 | 57.60247 | -152.67022 | 2757 ft | 307 kts | 72° |
| 2026-05-06 19:42 | 57.60972 | -152.63307 | 1989 ft | 302 kts | 51° |
| 2026-05-06 19:42 | 57.62681 | -152.61247 | 1460 ft | 292 kts | 22° |
| 2026-05-06 19:43 | 57.64490 | -152.59788 | 1312 ft | 273 kts | 24° |
| 2026-05-06 19:43 | 57.66128 | -152.58280 | 1280 ft | 255 kts | 28° |
| 2026-05-06 19:43 | 57.67592 | -152.56548 | 1116 ft | 243 kts | 34° |
| 2026-05-06 19:43 | 57.68922 | -152.54711 | 921 ft | 233 kts | 36° |
| 2026-05-06 19:44 | 57.70187 | -152.52919 | 578 ft | 230 kts | 36° |
| 2026-05-06 19:44 | 57.71437 | -152.51158 | 447 ft | 217 kts | 36° |
| 2026-05-06 19:44 | 57.72576 | -152.49508 | 477 ft | 198 kts | 38° |
| 2026-05-06 19:44 | 57.73610 | -152.47941 | 425 ft | 184 kts | 38° |
| 2026-05-06 19:45 | 57.74577 | -152.46475 | 349 ft | 173 kts | 37° |
| 2026-05-06 19:45 | 57.75470 | -152.45118 | 286 ft | 160 kts | 37° |
| 2026-05-06 19:45 | 57.76285 | -152.43821 | 183 ft | 147 kts | 39° |
| 2026-05-06 19:45 | 57.77044 | -152.42567 | 236 ft | 153 kts | 41° |
| 2026-05-06 19:46 | 57.77796 | -152.41089 | 382 ft | 158 kts | 44° |
| 2026-05-06 19:46 | 57.78498 | -152.39535 | 440 ft | 157 kts | 51° |
| 2026-05-06 19:46 | 57.79146 | -152.37855 | 579 ft | 156 kts | 47° |
| 2026-05-06 19:46 | 57.79818 | -152.38274 | 770 ft | 160 kts | 243° |
| 2026-05-06 19:47 | 57.78888 | -152.40009 | 534 ft | 191 kts | 231° |
| 2026-05-06 19:47 | 57.78114 | -152.41893 | 368 ft | 174 kts | 234° |
| 2026-05-06 19:47 | 57.77385 | -152.43634 | 98 ft | 169 kts | 234° |
| 2026-05-06 19:47 | 57.76695 | -152.45240 | 102 ft | 150 kts | 230° |
| 2026-05-06 19:48 | 57.75974 | -152.46648 | 81 ft | 150 kts | 233° |
| 2026-05-06 19:48 | 57.75302 | -152.48051 | 69 ft | 138 kts | 220° |
| 2026-05-06 19:48 | 57.74524 | -152.48873 | 45 ft | 108 kts | 207° |
| 2026-05-06 19:48 | 57.74056 | -152.49315 | 43 ft | 52 kts | 217° |
| 2026-05-06 19:49 | 57.73840 | -152.49697 | 38 ft | 34 kts | 224° |
| 2026-05-06 19:49 | 57.73756 | -152.49977 | 45 ft | 0 kts | 230° |